M I D A S
Marine Information and Data Acquisition System
Tripno 1607 of the Zeeleeuw from 2008-11-06 06:15:56 to 2008-11-06 11:15:34
Back to CruiseResearch ActivitiesStationsMapUnderway DataData graphs

EquipmentUnitsComment
TimeDGPSUTC
LatitudeDGPSDM.mWGS84
LongitudeDGPSDM.mWGS84
TemperatureSBE03/SBE38deg celciusITS90
ConductivitySBE21S/mITS90
SalinitySBE21 Practical Salinity Units
ChlorophylAChelsea fluorimeterg/lCalibrated in Aceton
Missing or incorrect values are displayed as -999
Sea surface data collected by the RV Zeeleeuw from 2008-11-06 05:35:30 to 2008-11-06 11:19:50
                                                                                    Next 1000 lines
Time Latitude Longitude Temperature Conductivity Salinity ChlorophylA
2008-11-06 05:35:40 51°13.621 2°56.045 -999 0.052498 0.276025 -1.139864
2008-11-06 05:35:45 51°13.621 2°56.045 -999 0.052704 0.277133 -1.10504
2008-11-06 05:35:50 51°13.621 2°56.045 -999 0.052704 0.277133 -1.10504
2008-11-06 05:35:55 51°13.621 2°56.045 -999 0.052704 0.277133 -1.10504
2008-11-06 05:36:00 51°13.621 2°56.045 -999 0.053219 0.279904 -1.139864
2008-11-06 05:36:05 51°13.621 2°56.045 -999 0.053013 0.278795 -1.139864
2008-11-06 05:36:10 51°13.621 2°56.045 -999 0.053116 0.279349 -1.139864
2008-11-06 05:36:15 51°13.621 2°56.045 -999 0.053219 0.279904 -1.139864
2008-11-06 05:36:20 51°13.621 2°56.045 -999 0.053219 0.279904 -1.139864
2008-11-06 05:36:25 51°13.621 2°56.045 -999 0.053116 0.279349 -1.139864
2008-11-06 05:36:30 51°13.62 2°56.045 -999 0.052807 0.277687 -1.139864
2008-11-06 05:36:35 51°13.62 2°56.045 -999 0.05219 0.274363 -1.139864
2008-11-06 05:36:40 51°13.62 2°56.045 -999 0.052498 0.27602 -1.139864
2008-11-06 05:36:45 51°13.62 2°56.045 -999 0.05291 0.278236 -1.139864
2008-11-06 05:36:50 51°13.62 2°56.045 -999 0.05291 0.278236 -1.139864
2008-11-06 05:36:55 51°13.621 2°56.046 -999 0.052807 0.277682 -1.10504
2008-11-06 05:37:00 51°13.621 2°56.046 -999 0.053013 0.278791 -1.139864
2008-11-06 05:37:05 51°13.62 2°56.046 -999 0.052704 0.277128 -1.139864
2008-11-06 05:37:10 51°13.621 2°56.046 -999 0.053013 0.278791 -1.139864
2008-11-06 05:37:15 51°13.621 2°56.046 -999 0.052807 0.277682 -1.10504
2008-11-06 05:37:20 51°13.621 2°56.046 -999 0.052807 0.277682 -1.10504
2008-11-06 05:37:25 51°13.62 2°56.046 -999 0.052807 0.277682 -1.10504
2008-11-06 05:37:30 51°13.62 2°56.046 -999 0.05291 0.278232 -1.139864
2008-11-06 05:37:35 51°13.62 2°56.046 -999 0.052807 0.277678 -1.139864
2008-11-06 05:37:40 51°13.621 2°56.046 -999 0.05291 0.278236 -1.139864
2008-11-06 05:37:45 51°13.621 2°56.046 -999 0.052704 0.277128 -1.139864
2008-11-06 05:37:50 51°13.621 2°56.046 -999 0.052704 0.277128 -1.139864
2008-11-06 05:37:55 51°13.621 2°56.046 -999 0.052807 0.277682 -1.139864
2008-11-06 05:38:00 51°13.621 2°56.046 -999 0.053013 0.278791 -1.10504
2008-11-06 05:38:05 51°13.621 2°56.046 -999 0.052807 0.277682 -1.10504
2008-11-06 05:38:10 51°13.621 2°56.046 -999 0.052498 0.27602 -1.139864
2008-11-06 05:38:15 51°13.621 2°56.046 -999 0.052704 0.277128 -1.139864
2008-11-06 05:38:20 51°13.621 2°56.046 -999 0.052704 0.277128 -1.139864
2008-11-06 05:38:25 51°13.621 2°56.046 -999 0.053013 0.278791 -1.10504
2008-11-06 05:38:30 51°13.621 2°56.046 -999 0.052704 0.277128 -1.139864
2008-11-06 05:38:35 51°13.621 2°56.046 -999 0.052601 0.27657 -1.139864
2008-11-06 05:38:40 51°13.621 2°56.046 -999 0.053219 0.279894 -1.10504
2008-11-06 05:38:45 51°13.621 2°56.046 -999 0.052807 0.277678 -1.139864
2008-11-06 05:38:50 51°13.621 2°56.046 -999 0.052807 0.277678 -1.139864
2008-11-06 05:38:55 51°13.62 2°56.046 -999 0.052704 0.277124 -1.139864
2008-11-06 05:39:00 51°13.621 2°56.046 -999 0.05291 0.278236 -1.139864
2008-11-06 05:39:05 51°13.62 2°56.046 -999 0.053116 0.27934 -1.10504
2008-11-06 05:39:10 51°13.62 2°56.046 -999 0.053116 0.279345 -1.10504
2008-11-06 05:39:15 51°13.62 2°56.046 -999 0.053116 0.27934 -1.139864
2008-11-06 05:39:20 51°13.62 2°56.046 -999 0.053116 0.27934 -1.139864
2008-11-06 05:39:25 51°13.62 2°56.046 -999 0.05291 0.278236 -1.139864
2008-11-06 05:39:30 51°13.62 2°56.046 -999 0.052601 0.276574 -1.139864
2008-11-06 05:39:35 51°13.62 2°56.046 -999 0.05291 0.278232 -1.139864
2008-11-06 05:39:40 51°13.62 2°56.046 -999 0.052601 0.27657 -1.139864
2008-11-06 05:39:45 51°13.62 2°56.046 -999 0.052601 0.27657 -1.10504
2008-11-06 05:39:50 51°13.621 2°56.047 -999 0.052601 0.27657 -1.10504
2008-11-06 05:39:55 51°13.621 2°56.047 -999 0.052601 0.27657 -1.10504
2008-11-06 05:40:00 51°13.621 2°56.047 -999 0.052498 0.276011 -1.10504
2008-11-06 05:40:05 51°13.621 2°56.047 -999 0.052807 0.277678 -1.139864
2008-11-06 05:40:10 51°13.621 2°56.047 -999 0.053116 0.27934 -1.10504
2008-11-06 05:40:15 51°13.621 2°56.047 -999 0.053116 0.27934 -1.139864
2008-11-06 05:40:20 51°13.622 2°56.047 -999 0.053116 0.27934 -1.139864
2008-11-06 05:40:25 51°13.622 2°56.047 -999 0.052807 0.277678 -1.139864
2008-11-06 05:40:30 51°13.622 2°56.047 -999 0.053424 0.281003 -1.10504
2008-11-06 05:40:35 51°13.622 2°56.048 -999 0.052704 0.277124 -1.139864
2008-11-06 05:40:40 51°13.622 2°56.048 -999 0.053219 0.279894 -1.10504
2008-11-06 05:40:45 51°13.623 2°56.048 -999 0.05363 0.282112 -1.139864
2008-11-06 05:40:50 51°13.623 2°56.048 -999 0.05363 0.282112 -1.139864
2008-11-06 05:40:55 51°13.623 2°56.048 -999 0.053424 0.281008 -1.10504
2008-11-06 05:41:00 51°13.623 2°56.048 -999 0.052704 0.277124 -1.139864
2008-11-06 05:41:05 51°13.623 2°56.048 -999 0.052704 0.277124 -1.10504
2008-11-06 05:41:10 51°13.623 2°56.048 -999 0.053013 0.278786 -1.139864
2008-11-06 05:41:15 51°13.623 2°56.048 -999 0.05291 0.278232 -1.139864
2008-11-06 05:41:20 51°13.623 2°56.048 -999 0.05291 0.278232 -1.139864
2008-11-06 05:41:25 51°13.623 2°56.048 -999 0.053013 0.278786 -1.139864
2008-11-06 05:41:30 51°13.622 2°56.048 -999 0.053322 0.280449 -1.139864
2008-11-06 05:41:35 51°13.623 2°56.048 -999 0.053424 0.281003 -1.10504
2008-11-06 05:41:40 51°13.622 2°56.048 -999 0.053219 0.279894 -1.139864
2008-11-06 05:41:45 51°13.622 2°56.048 -999 0.053219 0.279894 -1.139864
2008-11-06 05:41:50 51°13.622 2°56.048 -999 0.053219 0.279894 -1.139864
2008-11-06 05:41:55 51°13.623 2°56.048 -999 0.053116 0.27934 -1.139864
2008-11-06 05:42:00 51°13.623 2°56.048 -999 0.053116 0.27934 -1.139864
2008-11-06 05:42:05 51°13.623 2°56.048 -999 0.052807 0.277673 -1.139864
2008-11-06 05:42:10 51°13.623 2°56.048 -999 0.053116 0.27934 -1.139864
2008-11-06 05:42:15 51°13.623 2°56.048 -999 0.053219 0.279894 -1.139864
2008-11-06 05:42:20 51°13.624 2°56.048 -999 0.053219 0.279894 -1.139864
2008-11-06 05:42:25 51°13.624 2°56.048 -999 0.053116 0.27934 -1.139864
2008-11-06 05:42:30 51°13.623 2°56.048 -999 0.053013 0.278786 -1.139864
2008-11-06 05:42:35 51°13.624 2°56.048 -999 0.052807 0.277678 -1.139864
2008-11-06 05:42:40 51°13.624 2°56.048 -999 0.052601 0.276565 -1.139864
2008-11-06 05:42:45 51°13.624 2°56.048 -999 0.052498 0.276011 -1.139864
2008-11-06 05:42:50 51°13.624 2°56.048 -999 0.052498 0.276011 -1.139864
2008-11-06 05:42:55 51°13.624 2°56.048 -999 0.052601 0.27657 -1.139864
2008-11-06 05:43:00 51°13.624 2°56.048 -999 0.052704 0.277124 -1.139864
2008-11-06 05:43:05 51°13.624 2°56.048 -999 0.05291 0.278232 -1.139864
2008-11-06 05:43:10 51°13.624 2°56.048 -999 0.053116 0.27934 -1.139864
2008-11-06 05:43:15 51°13.624 2°56.048 -999 0.053322 0.280453 -1.139864
2008-11-06 05:43:20 51°13.624 2°56.048 -999 0.053322 0.280453 -1.139864
2008-11-06 05:43:25 51°13.625 2°56.048 -999 0.053116 0.27934 -1.139864
2008-11-06 05:43:30 51°13.625 2°56.048 -999 0.052807 0.277678 -1.139864
2008-11-06 05:43:35 51°13.625 2°56.048 -999 0.052601 0.27657 -1.10504
2008-11-06 05:43:40 51°13.625 2°56.048 -999 0.051984 0.273247 -1.139864
2008-11-06 05:43:45 51°13.624 2°56.048 -999 0.052292 0.274908 -1.139864
2008-11-06 05:43:50 51°13.624 2°56.048 -999 0.052292 0.274908 -1.139864
2008-11-06 05:43:55 51°13.624 2°56.048 -999 0.053013 0.278786 -1.10504
2008-11-06 05:44:00 51°13.624 2°56.048 -999 0.052807 0.277678 -1.139864
2008-11-06 05:44:05 51°13.624 2°56.048 -999 0.05291 0.278232 -1.139864
2008-11-06 05:44:10 51°13.624 2°56.048 -999 0.052704 0.277128 -1.139864
2008-11-06 05:44:15 51°13.624 2°56.048 -999 0.052704 0.277124 -1.139864
2008-11-06 05:44:20 51°13.624 2°56.048 -999 0.052704 0.277124 -1.139864
2008-11-06 05:44:25 51°13.624 2°56.048 -999 0.052087 0.273801 -1.139864
2008-11-06 05:44:30 51°13.625 2°56.048 -999 0.052704 0.277128 -1.139864
2008-11-06 05:44:35 51°13.625 2°56.048 -999 0.052498 0.27602 -1.139864
2008-11-06 05:44:40 51°13.625 2°56.048 -999 0.052601 0.276574 -1.139864
2008-11-06 05:44:45 51°13.625 2°56.048 -999 0.052601 0.276579 -1.139864
2008-11-06 05:44:50 51°13.625 2°56.048 -999 0.052601 0.276579 -1.139864
2008-11-06 05:44:55 51°13.625 2°56.048 -999 0.053322 0.280458 -1.139864
2008-11-06 05:45:00 51°13.625 2°56.048 -999 0.053219 0.279904 -1.139864
2008-11-06 05:45:05 51°13.625 2°56.049 -999 0.053013 0.278795 -1.10504
2008-11-06 05:45:10 51°13.625 2°56.049 -999 0.052704 0.277133 -1.139864
2008-11-06 05:45:15 51°13.625 2°56.049 -999 0.05291 0.278241 -1.139864
2008-11-06 05:45:20 51°13.624 2°56.048 -999 0.05291 0.278241 -1.139864
2008-11-06 05:45:25 51°13.625 2°56.048 -999 0.052601 0.276579 -1.139864
2008-11-06 05:45:30 51°13.625 2°56.048 -999 0.053219 0.279908 -1.10504
2008-11-06 05:45:35 51°13.625 2°56.048 -999 0.052704 0.277137 -1.139864
2008-11-06 05:45:40 51°13.624 2°56.048 -999 0.052704 0.277137 -1.139864
2008-11-06 05:45:45 51°13.624 2°56.048 -999 0.053219 0.279913 -1.139864
2008-11-06 05:45:50 51°13.623 2°56.048 -999 0.053219 0.279913 -1.139864
2008-11-06 05:45:55 51°13.623 2°56.048 -999 0.053219 0.279913 -1.139864
2008-11-06 05:46:00 51°13.623 2°56.048 -999 0.052807 0.277696 -1.10504
2008-11-06 05:46:05 51°13.623 2°56.048 -999 0.053424 0.281027 -1.139864
2008-11-06 05:46:10 51°13.623 2°56.048 -999 0.053219 0.279918 -1.139864
2008-11-06 05:46:15 51°13.623 2°56.048 -999 0.053322 0.280477 -1.139864
2008-11-06 05:46:20 51°13.623 2°56.048 -999 0.053322 0.280477 -1.139864
2008-11-06 05:46:25 51°13.623 2°56.048 -999 0.053424 0.281031 -1.139864
2008-11-06 05:46:30 51°13.622 2°56.048 -999 0.053219 0.279922 -1.10504
2008-11-06 05:46:35 51°13.622 2°56.048 -999 0.053116 0.279368 -1.139864
2008-11-06 05:46:40 51°13.623 2°56.048 -999 0.053116 0.279368 -1.139864
2008-11-06 05:46:45 51°13.623 2°56.048 -999 0.053013 0.278814 -1.10504
2008-11-06 05:46:50 51°13.623 2°56.048 -999 0.053013 0.278814 -1.10504
2008-11-06 05:46:55 51°13.623 2°56.048 -999 0.053219 0.279922 -1.139864
2008-11-06 05:47:00 51°13.623 2°56.048 -999 0.053322 0.280482 -1.139864
2008-11-06 05:47:05 51°13.623 2°56.048 -999 0.05291 0.278264 -1.10504
2008-11-06 05:47:10 51°13.623 2°56.048 -999 0.05291 0.278264 -1.139864
2008-11-06 05:47:15 51°13.623 2°56.048 -999 0.053219 0.279932 -1.139864
2008-11-06 05:47:20 51°13.623 2°56.048 -999 0.053219 0.279932 -1.139864
2008-11-06 05:47:25 51°13.623 2°56.047 -999 0.052807 0.277715 -1.139864
2008-11-06 05:47:30 51°13.623 2°56.047 -999 0.053013 0.278823 -1.139864
2008-11-06 05:47:35 51°13.623 2°56.047 -999 0.052704 0.277165 -1.139864
2008-11-06 05:47:40 51°13.623 2°56.047 -999 0.052498 0.276057 -1.10504
2008-11-06 05:47:45 51°13.623 2°56.047 -999 0.053219 0.279937 -1.139864
2008-11-06 05:47:50 51°13.623 2°56.047 -999 0.053219 0.279937 -1.139864
2008-11-06 05:47:55 51°13.623 2°56.047 -999 0.053219 0.279937 -1.139864
2008-11-06 05:48:00 51°13.623 2°56.047 -999 0.053013 0.278828 -1.10504
2008-11-06 05:48:05 51°13.624 2°56.048 -999 0.053013 0.278833 -1.139864
2008-11-06 05:48:10 51°13.624 2°56.048 -999 0.053836 0.283273 -1.139864
2008-11-06 05:48:15 51°13.624 2°56.048 -999 0.055174 0.2905 -1.139864
2008-11-06 05:48:20 51°13.624 2°56.048 -999 0.055174 0.2905 -1.139864
2008-11-06 05:48:25 51°13.624 2°56.048 -999 0.055586 0.292732 -1.139864
2008-11-06 05:48:30 51°13.625 2°56.048 -999 0.055483 0.292182 -1.139864
2008-11-06 05:48:35 51°13.625 2°56.048 -999 0.055277 0.29107 -1.10504
2008-11-06 05:48:40 51°13.625 2°56.048 -999 0.054042 0.284402 -1.139864
2008-11-06 05:48:45 51°13.625 2°56.048 -999 0.053322 0.280514 -1.139864
2008-11-06 05:48:50 51°13.625 2°56.048 -999 0.053322 0.280514 -1.139864
2008-11-06 05:48:55 51°13.625 2°56.048 -999 0.053219 0.27996 -1.139864
2008-11-06 05:49:00 51°13.625 2°56.048 -999 0.053219 0.27996 -1.139864
2008-11-06 05:49:05 51°13.625 2°56.048 -999 0.053116 0.279406 -1.10504
2008-11-06 05:49:10 51°13.625 2°56.048 -999 0.052807 0.277743 -1.139864
2008-11-06 05:49:15 51°13.625 2°56.048 -999 0.052601 0.276634 -1.139864
2008-11-06 05:49:20 51°13.625 2°56.048 -999 0.052601 0.276634 -1.139864
2008-11-06 05:49:25 51°13.625 2°56.049 -999 0.05291 0.278302 -1.139864
2008-11-06 05:49:30 51°13.625 2°56.049 -999 0.052498 0.276085 -1.139864
2008-11-06 05:49:35 51°13.625 2°56.049 -999 0.052601 0.276644 -1.139864
2008-11-06 05:49:40 51°13.625 2°56.049 -999 0.053116 0.279415 -1.139864
2008-11-06 05:49:45 51°13.625 2°56.049 -999 0.052704 0.277198 -1.10504
2008-11-06 05:49:50 51°13.625 2°56.048 -999 0.052704 0.277198 -1.10504
2008-11-06 05:49:55 51°13.625 2°56.049 -999 0.052395 0.27554 -1.139864
2008-11-06 05:50:00 51°13.625 2°56.049 -999 0.052292 0.274986 -1.139864
2008-11-06 05:50:05 51°13.625 2°56.048 -999 0.052601 0.276648 -1.139864
2008-11-06 05:50:10 51°13.625 2°56.048 -999 0.052292 0.274986 -1.139864
2008-11-06 05:50:15 51°13.625 2°56.048 -999 0.052395 0.27554 -1.139864
2008-11-06 05:50:20 51°13.625 2°56.048 -999 0.052395 0.27554 -1.139864
2008-11-06 05:50:25 51°13.625 2°56.048 -999 0.051984 0.273329 -1.139864
2008-11-06 05:50:30 51°13.625 2°56.049 -999 0.051469 0.270556 -1.139864
2008-11-06 05:50:35 51°13.624 2°56.049 -999 0.051469 0.270561 -1.139864
2008-11-06 05:50:40 51°13.624 2°56.048 -999 0.051469 0.270561 -1.139864
2008-11-06 05:50:45 51°13.623 2°56.048 -999 0.051572 0.271114 -1.139864
2008-11-06 05:50:50 51°13.624 2°56.048 -999 0.051572 0.271114 -1.139864
2008-11-06 05:50:55 51°13.624 2°56.048 -999 0.051675 0.271668 -1.139864
2008-11-06 05:51:00 51°13.624 2°56.048 -999 0.051469 0.270565 -1.10504
2008-11-06 05:51:05 51°13.624 2°56.048 -999 0.051572 0.271123 -1.139864
2008-11-06 05:51:10 51°13.624 2°56.048 -999 0.051572 0.271123 -1.10504
2008-11-06 05:51:15 51°13.624 2°56.048 -999 0.05116 0.26891 -1.139864
2008-11-06 05:51:20 51°13.624 2°56.048 -999 0.05116 0.26891 -1.139864
2008-11-06 05:51:25 51°13.625 2°56.048 -999 0.051778 0.272231 -1.10504
2008-11-06 05:51:29 51°13.625 2°56.049 -999 0.051984 0.273343 -1.139864
2008-11-06 05:51:34 51°13.625 2°56.048 -999 0.051881 0.272794 -1.139864
2008-11-06 05:51:39 51°13.624 2°56.048 -999 0.051675 0.271686 -1.10504
2008-11-06 05:51:45 51°13.624 2°56.048 -999 0.051263 0.269472 -1.139864
2008-11-06 05:51:49 51°13.624 2°56.048 -999 0.051263 0.269472 -1.139864
2008-11-06 05:51:54 51°13.624 2°56.048 -999 0.051263 0.269472 -1.10504
2008-11-06 05:52:00 51°13.625 2°56.048 -999 0.051675 0.271691 -1.139864
2008-11-06 05:52:05 51°13.626 2°56.048 -999 0.05116 0.268923 -1.10504
2008-11-06 05:52:09 51°13.626 2°56.049 -999 0.050955 0.267817 -1.139864
2008-11-06 05:52:15 51°13.626 2°56.048 -999 0.051263 0.269481 -1.10504
2008-11-06 05:52:20 51°13.626 2°56.048 -999 0.051263 0.269481 -1.10504
2008-11-06 05:52:24 51°13.625 2°56.048 -999 0.051881 0.272803 -1.139864
2008-11-06 05:52:29 51°13.625 2°56.048 -999 0.051469 0.270592 -1.139864
2008-11-06 05:52:35 51°13.624 2°56.047 -999 0.051572 0.271151 -1.10504
2008-11-06 05:52:40 51°13.623 2°56.047 -999 0.051572 0.271151 -1.139864
2008-11-06 05:52:45 51°13.623 2°56.047 -999 0.051263 0.269495 -1.139864
2008-11-06 05:52:49 51°13.622 2°56.047 -999 0.051263 0.269495 -1.139864
2008-11-06 05:52:55 51°13.622 2°56.047 -999 0.051263 0.269495 -1.139864
2008-11-06 05:53:00 51°13.623 2°56.048 -999 0.051675 0.271713 -1.10504
2008-11-06 05:53:05 51°13.623 2°56.048 -999 0.051881 0.272821 -1.10504
2008-11-06 05:53:09 51°13.623 2°56.048 -999 0.051366 0.270057 -1.139864
2008-11-06 05:53:15 51°13.623 2°56.048 -999 0.051572 0.271169 -1.139864
2008-11-06 05:53:20 51°13.623 2°56.048 -999 0.051572 0.271169 -1.139864
2008-11-06 05:53:25 51°13.623 2°56.048 -999 0.051572 0.271169 -1.139864
2008-11-06 05:53:29 51°13.623 2°56.048 -999 0.051984 0.273384 -1.139864
2008-11-06 05:53:34 51°13.623 2°56.048 -999 0.051881 0.272835 -1.139864
2008-11-06 05:53:39 51°13.623 2°56.048 -999 0.051881 0.272835 -1.10504
2008-11-06 05:53:45 51°13.623 2°56.048 -999 0.051572 0.271178 -1.139864
2008-11-06 05:53:49 51°13.623 2°56.048 -999 0.051572 0.271178 -1.139864
2008-11-06 05:53:54 51°13.623 2°56.048 -999 0.051984 0.273393 -1.139864
2008-11-06 05:54:00 51°13.623 2°56.048 -999 0.051469 0.270624 -1.139864
2008-11-06 05:54:05 51°13.623 2°56.048 -999 0.051366 0.270075 -1.139864
2008-11-06 05:54:09 51°13.623 2°56.048 -999 0.050955 0.267861 -1.10504
2008-11-06 05:54:15 51°13.623 2°56.048 -999 0.051572 0.271187 -1.10504
2008-11-06 05:54:20 51°13.623 2°56.048 -999 0.051572 0.271187 -1.10504
2008-11-06 05:54:25 51°13.623 2°56.048 -999 0.051778 0.272299 -1.10504
2008-11-06 05:54:29 51°13.623 2°56.048 -999 0.05219 0.274519 -1.139864
2008-11-06 05:54:35 51°13.623 2°56.048 -999 0.051778 0.272303 -1.139864
2008-11-06 05:54:40 51°13.623 2°56.048 -999 0.051469 0.270647 -1.139864
2008-11-06 05:54:45 51°13.623 2°56.048 -999 0.051263 0.269544 -1.10504
2008-11-06 05:54:49 51°13.623 2°56.048 -999 0.051263 0.269544 -1.10504
2008-11-06 05:54:54 51°13.623 2°56.048 -999 0.05116 0.268986 -1.139864
2008-11-06 05:55:00 51°13.623 2°56.048 -999 0.051572 0.271209 -1.139864
2008-11-06 05:55:05 51°13.623 2°56.048 -999 0.05116 0.268995 -1.139864
2008-11-06 05:55:09 51°13.623 2°56.048 -999 0.051366 0.270107 -1.10504
2008-11-06 05:55:15 51°13.623 2°56.048 -999 0.051572 0.271214 -1.139864
2008-11-06 05:55:20 51°13.623 2°56.048 -999 0.051572 0.271214 -1.139864
2008-11-06 05:55:24 51°13.623 2°56.048 -999 0.051881 0.27288 -1.10504
2008-11-06 05:55:29 51°13.623 2°56.048 -999 0.051572 0.271223 -1.139864
2008-11-06 05:55:35 51°13.623 2°56.048 -999 0.051572 0.271223 -1.139864
2008-11-06 05:55:40 51°13.623 2°56.048 -999 0.051263 0.269567 -1.139864
2008-11-06 05:55:45 51°13.623 2°56.048 -999 0.051366 0.27012 -1.139864
2008-11-06 05:55:49 51°13.623 2°56.048 -999 0.051366 0.27012 -1.139864
2008-11-06 05:55:54 51°13.623 2°56.048 -999 0.050852 0.267357 -1.139864
2008-11-06 05:56:00 51°13.623 2°56.048 -999 0.051058 0.268464 -1.139864
2008-11-06 05:56:05 51°13.623 2°56.048 -999 0.051366 0.270129 -1.10504
2008-11-06 05:56:09 51°13.623 2°56.048 -999 0.051675 0.271795 -1.139864
2008-11-06 05:56:14 51°13.623 2°56.048 -999 0.051366 0.270134 -1.139864
2008-11-06 05:56:20 51°13.623 2°56.047 -999 0.051366 0.270134 -1.139864
2008-11-06 05:56:25 51°13.623 2°56.047 -999 0.051778 0.272358 -1.139864
2008-11-06 05:56:29 51°13.623 2°56.047 -999 0.051984 0.273471 -1.139864
2008-11-06 05:56:34 51°13.623 2°56.047 -999 0.05219 0.274584 -1.10504
2008-11-06 05:56:40 51°13.622 2°56.047 -999 0.051778 0.272367 -1.139864
2008-11-06 05:56:45 51°13.622 2°56.047 -999 0.051572 0.271264 -1.139864
2008-11-06 05:56:49 51°13.622 2°56.047 -999 0.051572 0.271264 -1.139864
2008-11-06 05:56:54 51°13.622 2°56.047 -999 0.05116 0.269049 -1.139864
2008-11-06 05:57:00 51°13.622 2°56.048 -999 0.051366 0.270161 -1.139864
2008-11-06 05:57:05 51°13.622 2°56.047 -999 0.051469 0.270719 -1.139864
2008-11-06 05:57:09 51°13.622 2°56.047 -999 0.051469 0.270724 -1.139864
2008-11-06 05:57:15 51°13.622 2°56.048 -999 0.051572 0.271277 -1.139864
2008-11-06 05:57:20 51°13.623 2°56.048 -999 0.051572 0.271277 -1.139864
2008-11-06 05:57:24 51°13.623 2°56.048 -999 0.051881 0.272939 -1.139864
2008-11-06 05:57:29 51°13.623 2°56.048 -999 0.051469 0.270733 -1.139864
2008-11-06 05:57:35 51°13.623 2°56.048 -999 0.051263 0.269625 -1.139864
2008-11-06 05:57:40 51°13.623 2°56.048 -999 0.051263 0.26963 -1.139864
2008-11-06 05:57:45 51°13.622 2°56.047 -999 0.051366 0.270188 -1.139864
2008-11-06 05:57:49 51°13.622 2°56.047 -999 0.051366 0.270188 -1.139864
2008-11-06 05:57:54 51°13.622 2°56.047 -999 0.051675 0.27185 -1.139864
2008-11-06 05:58:00 51°13.622 2°56.047 -999 0.051366 0.270192 -1.139864
2008-11-06 05:58:05 51°13.622 2°56.047 -999 0.050955 0.267978 -1.139864
2008-11-06 05:58:10 51°13.622 2°56.047 -999 0.050646 0.266317 -1.139864
2008-11-06 05:58:14 51°13.622 2°56.047 -999 0.051263 0.269643 -1.139864
2008-11-06 05:58:20 51°13.622 2°56.047 -999 0.051263 0.269643 -1.139864
2008-11-06 05:58:25 51°13.622 2°56.047 -999 0.051469 0.270755 -1.139864
2008-11-06 05:58:29 51°13.623 2°56.047 -999 0.051881 0.272976 -1.139864
2008-11-06 05:58:34 51°13.622 2°56.047 -999 0.05116 0.269103 -1.139864
2008-11-06 05:58:40 51°13.622 2°56.047 -999 0.05116 0.269103 -1.139864
2008-11-06 05:58:45 51°13.622 2°56.047 -999 0.051058 0.268554 -1.139864
2008-11-06 05:58:49 51°13.622 2°56.047 -999 0.051058 0.268554 -1.139864
2008-11-06 05:58:54 51°13.622 2°56.047 -999 0.051366 0.270219 -1.139864
2008-11-06 05:59:00 51°13.623 2°56.047 -999 0.051778 0.272435 -1.139864
2008-11-06 05:59:05 51°13.623 2°56.047 -999 0.051881 0.272994 -1.139864
2008-11-06 05:59:09 51°13.623 2°56.047 -999 0.051366 0.270224 -1.139864
2008-11-06 05:59:15 51°13.623 2°56.047 -999 0.051469 0.270782 -1.10504
2008-11-06 05:59:20 51°13.623 2°56.047 -999 0.051469 0.270782 -1.10504
2008-11-06 05:59:24 51°13.623 2°56.047 -999 0.051881 0.273003 -1.139864
2008-11-06 05:59:29 51°13.623 2°56.047 -999 0.051058 0.268572 -1.139864
2008-11-06 05:59:35 51°13.623 2°56.047 -999 0.051572 0.271345 -1.139864
2008-11-06 05:59:40 51°13.623 2°56.047 -999 0.051881 0.273012 -1.139864
2008-11-06 05:59:45 51°13.623 2°56.047 -999 0.051675 0.271909 -1.139864
2008-11-06 05:59:49 51°13.623 2°56.047 -999 0.051675 0.271909 -1.139864
2008-11-06 05:59:55 51°13.623 2°56.047 -999 0.05116 0.269143 -1.10504
2008-11-06 06:00:00 51°13.623 2°56.047 -999 0.051572 0.271355 -1.10504
2008-11-06 06:00:05 51°13.623 2°56.047 -999 0.051469 0.270805 -1.139864
2008-11-06 06:00:09 51°13.623 2°56.047 -999 0.051058 0.268589 -1.139864
2008-11-06 06:00:14 51°13.623 2°56.047 -999 0.050955 0.26804 -1.139864
2008-11-06 06:00:20 51°13.623 2°56.047 -999 0.050955 0.26804 -1.139864
2008-11-06 06:00:25 51°13.623 2°56.047 -999 0.051572 0.271368 -1.139864
2008-11-06 06:00:29 51°13.623 2°56.047 -999 0.051263 0.269706 -1.139864
2008-11-06 06:00:34 51°13.623 2°56.047 -999 0.051366 0.270265 -1.10504
2008-11-06 06:00:40 51°13.622 2°56.047 -999 0.05116 0.269157 -1.10504
2008-11-06 06:00:45 51°13.622 2°56.047 -999 0.051572 0.271377 -1.139864
2008-11-06 06:00:49 51°13.622 2°56.047 -999 0.051572 0.271377 -1.139864
2008-11-06 06:00:54 51°13.622 2°56.047 -999 0.051984 0.273599 -1.139864
2008-11-06 06:01:00 51°13.622 2°56.047 -999 0.051469 0.270832 -1.139864
2008-11-06 06:01:05 51°13.622 2°56.047 -999 0.051469 0.270832 -1.139864
2008-11-06 06:01:09 51°13.622 2°56.047 -999 0.050749 0.266955 -1.139864
2008-11-06 06:01:14 51°13.622 2°56.047 -999 0.05116 0.269175 -1.139864
2008-11-06 06:01:20 51°13.623 2°56.047 -999 0.05116 0.269175 -1.139864
2008-11-06 06:01:24 51°13.623 2°56.047 -999 0.051263 0.269729 -1.139864
2008-11-06 06:01:29 51°13.623 2°56.047 -999 0.051778 0.272504 -1.139864
2008-11-06 06:01:35 51°13.623 2°56.047 -999 0.051984 0.273622 -1.139864
2008-11-06 06:01:40 51°13.623 2°56.047 -999 0.051984 0.273626 -1.139864
2008-11-06 06:01:44 51°13.623 2°56.047 -999 0.051469 0.270855 -1.139864
2008-11-06 06:01:49 51°13.623 2°56.047 -999 0.051469 0.270855 -1.139864
2008-11-06 06:01:55 51°13.623 2°56.047 -999 0.05116 0.269193 -1.139864
2008-11-06 06:02:00 51°13.623 2°56.047 -999 0.051366 0.270305 -1.139864
2008-11-06 06:02:05 51°13.623 2°56.047 -999 0.051881 0.273081 -1.139864
2008-11-06 06:02:09 51°13.623 2°56.047 -999 0.051469 0.270864 -1.139864
2008-11-06 06:02:15 51°13.623 2°56.047 -999 0.051778 0.272527 -1.10504
2008-11-06 06:02:20 51°13.623 2°56.047 -999 0.051778 0.272527 -1.10504
2008-11-06 06:02:25 51°13.623 2°56.047 -999 0.051675 0.271977 -1.139864
2008-11-06 06:02:29 51°13.623 2°56.047 -999 0.051469 0.270873 -1.139864
2008-11-06 06:02:34 51°13.623 2°56.047 -999 0.051675 0.271986 -1.139864
2008-11-06 06:02:40 51°13.623 2°56.047 -999 0.051778 0.27254 -1.139864
2008-11-06 06:02:45 51°13.623 2°56.048 -999 0.050749 0.267 -1.139864
2008-11-06 06:02:49 51°13.623 2°56.047 -999 0.050749 0.267 -1.139864
2008-11-06 06:02:54 51°13.623 2°56.048 -999 0.050749 0.267 -1.139864
2008-11-06 06:03:00 51°13.624 2°56.048 -999 0.051366 0.270328 -1.139864
2008-11-06 06:03:05 51°13.623 2°56.048 -999 0.051778 0.272549 -1.139864
2008-11-06 06:03:09 51°13.623 2°56.048 -999 0.051469 0.270896 -1.139864
2008-11-06 06:03:14 51°13.623 2°56.048 -999 0.051058 0.268679 -1.10504
2008-11-06 06:03:20 51°13.623 2°56.048 -999 0.051058 0.268679 -1.10504
2008-11-06 06:03:25 51°13.623 2°56.048 -999 0.050852 0.267571 -1.10504
2008-11-06 06:03:29 51°13.623 2°56.048 -999 0.051263 0.269792 -1.10504
2008-11-06 06:03:34 51°13.623 2°56.048 -999 0.051675 0.272013 -1.10504
2008-11-06 06:03:40 51°13.623 2°56.048 -999 0.051263 0.269801 -1.10504
2008-11-06 06:03:44 51°13.623 2°56.048 -999 0.051366 0.270355 -1.139864
2008-11-06 06:03:49 51°13.623 2°56.048 -999 0.051366 0.270355 -1.139864
2008-11-06 06:03:55 51°13.623 2°56.048 -999 0.051469 0.270909 -1.139864
2008-11-06 06:04:00 51°13.623 2°56.048 -999 0.05219 0.2748 -1.139864
2008-11-06 06:04:04 51°13.623 2°56.048 -999 0.051263 0.269814 -1.139864
2008-11-06 06:04:09 51°13.623 2°56.048 -999 0.050543 0.265937 -1.139864
2008-11-06 06:04:15 51°13.623 2°56.048 -999 0.050234 0.264276 -1.10504
2008-11-06 06:04:20 51°13.624 2°56.048 -999 0.050234 0.264276 -1.10504
2008-11-06 06:04:25 51°13.624 2°56.048 -999 0.051263 0.269814 -1.139864
2008-11-06 06:04:29 51°13.624 2°56.048 -999 0.05116 0.269265 -1.139864
2008-11-06 06:04:34 51°13.624 2°56.048 -999 0.051263 0.269823 -1.139864
2008-11-06 06:04:40 51°13.624 2°56.048 -999 0.051572 0.271495 -1.139864
2008-11-06 06:04:45 51°13.624 2°56.048 -999 0.050337 0.264843 -1.139864
2008-11-06 06:04:49 51°13.624 2°56.048 -999 0.050337 0.264843 -1.139864
2008-11-06 06:04:55 51°13.624 2°56.047 -999 0.05044 0.265401 -1.139864
2008-11-06 06:05:00 51°13.624 2°56.047 -999 0.051058 0.268724 -1.139864
2008-11-06 06:05:05 51°13.624 2°56.047 -999 0.050955 0.268175 -1.139864
2008-11-06 06:05:09 51°13.624 2°56.047 -999 0.051572 0.271504 -1.139864
2008-11-06 06:05:14 51°13.624 2°56.047 -999 0.050749 0.267076 -1.139864
2008-11-06 06:05:20 51°13.624 2°56.047 -999 0.050749 0.267076 -1.139864
2008-11-06 06:05:25 51°13.624 2°56.047 -999 0.050749 0.267076 -1.10504
2008-11-06 06:05:29 51°13.623 2°56.047 -999 0.050955 0.268188 -1.139864
2008-11-06 06:05:34 51°13.624 2°56.047 -999 0.05116 0.269301 -1.139864
2008-11-06 06:05:40 51°13.624 2°56.047 -999 0.051058 0.268751 -1.139864
2008-11-06 06:05:45 51°13.623 2°56.047 -999 0.052292 0.275414 -1.139864
2008-11-06 06:05:49 51°13.623 2°56.047 -999 0.052292 0.275414 -1.139864
2008-11-06 06:05:55 51°13.623 2°56.047 -999 0.050852 0.267652 -1.139864
2008-11-06 06:06:00 51°13.623 2°56.047 -999 0.051984 0.273754 -1.139864
2008-11-06 06:06:04 51°13.623 2°56.047 -999 0.050646 0.266548 -1.139864
2008-11-06 06:06:09 51°13.623 2°56.047 -999 0.051058 0.268765 -1.139864
2008-11-06 06:06:15 51°13.623 2°56.047 -999 0.05116 0.269323 -1.139864
2008-11-06 06:06:20 51°13.623 2°56.047 -999 0.05116 0.269323 -1.139864
2008-11-06 06:06:25 51°13.623 2°56.047 -999 0.051572 0.271545 -1.139864
2008-11-06 06:06:29 51°13.623 2°56.047 -999 0.051366 0.270441 -1.139864
2008-11-06 06:06:35 51°13.623 2°56.047 -999 0.051366 0.270445 -1.10504
2008-11-06 06:06:40 51°13.623 2°56.047 -999 0.051881 0.273223 -1.139864
2008-11-06 06:06:45 51°13.623 2°56.048 -999 0.050646 0.266575 -1.139864
2008-11-06 06:06:49 51°13.623 2°56.048 -999 0.050646 0.266575 -1.139864
2008-11-06 06:06:55 51°13.623 2°56.048 -999 0.050749 0.267129 -1.139864
2008-11-06 06:07:00 51°13.623 2°56.048 -999 0.051263 0.2699 -1.139864
2008-11-06 06:07:05 51°13.623 2°56.048 -999 0.051984 0.273791 -1.139864
2008-11-06 06:07:09 51°13.623 2°56.048 -999 0.050955 0.268246 -1.10504
2008-11-06 06:07:14 51°13.623 2°56.048 -999 0.050646 0.266589 -1.139864
2008-11-06 06:07:20 51°13.623 2°56.048 -999 0.050646 0.266589 -1.139864
2008-11-06 06:07:25 51°13.623 2°56.048 -999 0.051572 0.271582 -1.10504
2008-11-06 06:07:29 51°13.623 2°56.048 -999 0.05116 0.269373 -1.139864
2008-11-06 06:07:34 51°13.623 2°56.048 -999 0.050852 0.26771 -1.10504
2008-11-06 06:07:40 51°13.623 2°56.048 -999 0.051366 0.270482 -1.139864
2008-11-06 06:07:45 51°13.623 2°56.048 -999 0.051675 0.272154 -1.139864
2008-11-06 06:07:49 51°13.623 2°56.048 -999 0.051675 0.272154 -1.139864
2008-11-06 06:07:55 51°13.623 2°56.048 -999 0.05116 0.269386 -1.139864
2008-11-06 06:08:00 51°13.623 2°56.048 -999 0.051469 0.27105 -1.139864
2008-11-06 06:08:05 51°13.623 2°56.048 -999 0.051469 0.271054 -1.139864
2008-11-06 06:08:09 51°13.623 2°56.048 -999 0.051469 0.271059 -1.139864
2008-11-06 06:08:14 51°13.622 2°56.048 -999 0.051366 0.270504 -1.139864
2008-11-06 06:08:20 51°13.622 2°56.048 -999 0.051366 0.270504 -1.139864
2008-11-06 06:08:25 51°13.622 2°56.048 -999 0.052087 0.274396 -1.139864
2008-11-06 06:08:29 51°13.623 2°56.048 -999 0.052087 0.274401 -1.139864
2008-11-06 06:08:35 51°13.623 2°56.049 -999 0.051469 0.271077 -1.139864
2008-11-06 06:08:40 51°13.622 2°56.048 -999 0.051778 0.272746 -1.139864
2008-11-06 06:08:44 51°13.622 2°56.048 -999 0.05116 0.269418 -1.139864
2008-11-06 06:08:50 51°13.622 2°56.048 -999 0.05116 0.269418 -1.139864
2008-11-06 06:08:55 51°13.622 2°56.048 -999 0.050543 0.266092 -1.139864
2008-11-06 06:09:00 51°13.622 2°56.047 -999 0.04972 0.261662 -1.10504
2008-11-06 06:09:05 51°13.622 2°56.046 -999 0.049411 0.260001 -1.139864
2008-11-06 06:09:09 51°13.623 2°56.045 -999 0.049205 0.258895 -1.139864
2008-11-06 06:09:14 51°13.623 2°56.043 -999 0.048896 0.257231 -1.139864
2008-11-06 06:09:20 51°13.624 2°56.039 -999 0.048896 0.257231 -1.139864
2008-11-06 06:09:25 51°13.625 2°56.036 -999 0.049823 0.262215 -1.139864
2008-11-06 06:09:29 51°13.626 2°56.032 -999 0.048691 0.256129 -1.139864
2008-11-06 06:09:35 51°13.627 2°56.026 -999 0.049102 0.258346 -1.139864
2008-11-06 06:09:40 51°13.629 2°56.021 -999 0.049411 0.26001 -1.139864
2008-11-06 06:09:45 51°13.631 2°56.014 -999 0.048794 0.256699 -1.139864
2008-11-06 06:09:50 51°13.632 2°56.007 -999 0.048794 0.256699 -1.139864
2008-11-06 06:09:55 51°13.635 2°56 -999 0.04972 0.261684 -1.139864
2008-11-06 06:10:00 51°13.637 2°55.992 -999 0.050131 0.263912 -1.139864
2008-11-06 06:10:05 51°13.639 2°55.984 -999 0.049617 0.261143 -1.139864
2008-11-06 06:10:10 51°13.641 2°55.976 -999 0.049102 0.25838 -1.139864
2008-11-06 06:10:15 51°13.644 2°55.967 -999 0.049617 0.261152 -1.139864
2008-11-06 06:10:20 51°13.646 2°55.959 -999 0.049617 0.261152 -1.139864
2008-11-06 06:10:25 51°13.649 2°55.95 -999 0.048485 0.255066 -1.139864
2008-11-06 06:10:30 51°13.651 2°55.94 -999 0.049205 0.258938 -1.139864
2008-11-06 06:10:35 51°13.654 2°55.931 -999 0.050543 0.266146 -1.139864
2008-11-06 06:10:40 51°13.657 2°55.922 -999 0.050131 0.263934 -1.139864
2008-11-06 06:10:45 51°13.661 2°55.912 -999 0.050646 0.266709 -1.139864
2008-11-06 06:10:50 51°13.664 2°55.903 -999 0.050646 0.266709 -1.139864
2008-11-06 06:10:55 51°13.667 2°55.893 -999 0.049308 0.259513 -1.139864
2008-11-06 06:11:00 51°13.671 2°55.884 -999 0.049926 0.262839 -1.139864
2008-11-06 06:11:05 51°13.675 2°55.875 -999 0.048896 0.257304 -1.139864
2008-11-06 06:11:10 51°13.678 2°55.865 -999 0.048382 0.254543 -1.139864
2008-11-06 06:11:15 51°13.682 2°55.856 -999 0.050131 0.263956 -1.139864
2008-11-06 06:11:20 51°13.686 2°55.846 -999 0.050131 0.263956 -1.139864
2008-11-06 06:11:25 51°13.691 2°55.837 -999 0.049308 0.25953 -1.10504
2008-11-06 06:11:30 51°13.695 2°55.828 -999 0.050131 0.263969 -1.139864
2008-11-06 06:11:35 51°13.699 2°55.818 -999 0.049308 0.259535 -1.139864
2008-11-06 06:11:40 51°13.704 2°55.809 -999 0.048588 0.255666 -1.139864
2008-11-06 06:11:45 51°13.708 2°55.8 -999 0.049205 0.25899 -1.139864
2008-11-06 06:11:50 51°13.713 2°55.791 -999 0.049205 0.25899 -1.139864
2008-11-06 06:11:55 51°13.718 2°55.782 -999 0.048588 0.25567 -1.139864
2008-11-06 06:12:00 51°13.722 2°55.773 -999 0.048588 0.25567 -1.139864
2008-11-06 06:12:05 51°13.727 2°55.763 -999 0.048279 0.254015 -1.139864
2008-11-06 06:12:10 51°13.732 2°55.754 -999 0.050028 0.263433 -1.10504
2008-11-06 06:12:15 51°13.736 2°55.745 -999 0.050234 0.264541 -1.139864
2008-11-06 06:12:20 51°13.741 2°55.736 -999 0.050234 0.264541 -1.139864
2008-11-06 06:12:25 51°13.746 2°55.727 -999 0.050131 0.264 -1.139864
2008-11-06 06:12:30 51°13.751 2°55.719 -999 0.050131 0.264005 -1.10504
2008-11-06 06:12:35 51°13.756 2°55.71 -999 0.050028 0.263455 -1.139864
2008-11-06 06:12:40 51°13.762 2°55.702 -999 0.050028 0.263459 -1.10504
2008-11-06 06:12:45 51°13.767 2°55.695 -999 0.050028 0.263464 -1.139864
2008-11-06 06:12:50 51°13.773 2°55.687 -999 0.050028 0.263464 -1.139864
2008-11-06 06:12:55 51°13.779 2°55.68 -999 0.048896 0.257377 -1.10504
2008-11-06 06:13:00 51°13.785 2°55.673 -999 0.050131 0.264027 -1.139864
2008-11-06 06:13:05 51°13.792 2°55.667 -999 0.049514 0.260707 -1.139864
2008-11-06 06:13:10 51°13.798 2°55.661 -999 0.050028 0.263481 -1.139864
2008-11-06 06:13:15 51°13.805 2°55.656 -999 0.048896 0.25739 -1.139864
2008-11-06 06:13:20 51°13.812 2°55.651 -999 0.048896 0.25739 -1.139864
2008-11-06 06:13:25 51°13.819 2°55.646 -999 0.048999 0.257948 -1.139864
2008-11-06 06:13:30 51°13.826 2°55.642 -999 0.049823 0.262386 -1.139864
2008-11-06 06:13:35 51°13.833 2°55.638 -999 0.049926 0.262945 -1.139864
2008-11-06 06:13:40 51°13.839 2°55.635 -999 0.050234 0.264612 -1.10504
2008-11-06 06:13:45 51°13.847 2°55.632 -999 0.049823 0.262395 -1.139864
2008-11-06 06:13:50 51°13.853 2°55.631 -999 0.049823 0.262395 -1.139864
2008-11-06 06:13:55 51°13.86 2°55.629 -999 0.05044 0.265729 -1.139864
2008-11-06 06:14:00 51°13.867 2°55.629 -999 0.050131 0.264071 -1.139864
2008-11-06 06:14:05 51°13.874 2°55.629 -999 0.049617 0.261305 -1.139864
2008-11-06 06:14:10 51°13.881 2°55.629 -999 0.05116 0.269626 -1.139864
2008-11-06 06:14:15 51°13.887 2°55.63 -999 0.05116 0.26963 -1.139864
2008-11-06 06:14:20 51°13.893 2°55.632 -999 0.05116 0.26963 -1.139864
2008-11-06 06:14:25 51°13.9 2°55.635 -999 0.051366 0.270749 -1.139864
2008-11-06 06:14:30 51°13.906 2°55.638 -999 0.051058 0.269089 -1.139864
2008-11-06 06:14:35 51°13.911 2°55.641 -999 0.052292 0.275761 -1.139864
2008-11-06 06:14:40 51°13.916 2°55.645 -999 0.05363 0.282998 -1.139864
2008-11-06 06:14:45 51°13.921 2°55.649 -999 0.051058 0.269116 -1.139864
2008-11-06 06:14:50 51°13.925 2°55.652 -999 0.051058 0.269116 -1.139864
2008-11-06 06:14:55 51°13.928 2°55.656 -999 0.052395 0.276339 -1.139864
2008-11-06 06:15:00 51°13.932 2°55.659 -999 0.052601 0.27746 -1.139864
2008-11-06 06:15:04 51°13.934 2°55.662 -999 0.051984 0.274135 -1.139864
2008-11-06 06:15:09 51°13.937 2°55.665 -999 0.051778 0.273029 -1.10504
2008-11-06 06:15:15 51°13.939 2°55.667 -999 0.053733 0.283592 -1.10504
2008-11-06 06:15:20 51°13.94 2°55.668 -999 0.053733 0.283592 -1.10504
2008-11-06 06:15:24 51°13.941 2°55.669 -999 0.053424 0.281928 -1.139864
2008-11-06 06:15:29 51°13.941 2°55.668 -999 0.053939 0.284715 -1.139864
2008-11-06 06:15:35 51°13.942 2°55.665 -999 0.054762 0.28917 -1.139864
2008-11-06 06:15:40 51°13.942 2°55.661 -999 0.052395 0.276367 -1.139864
2008-11-06 06:15:45 51°13.942 2°55.655 -999 0.048999 0.258051 -1.139864
2008-11-06 06:15:49 51°13.943 2°55.65 -999 0.048999 0.258051 -1.139864
2008-11-06 06:15:55 51°13.945 2°55.641 -999 0.048999 0.258042 -1.139864
2008-11-06 06:16:00 51°13.947 2°55.633 -999 0.050028 0.263592 -1.139864
2008-11-06 06:16:05 51°13.95 2°55.624 -999 0.050749 0.267487 -1.139864
2008-11-06 06:16:09 51°13.953 2°55.617 -999 0.050131 0.264168 -1.139864
2008-11-06 06:16:14 51°13.957 2°55.607 -999 0.050131 0.264173 -1.10504
2008-11-06 06:16:20 51°13.962 2°55.595 -999 0.050131 0.264173 -1.10504
2008-11-06 06:16:25 51°13.968 2°55.585 -999 0.050543 0.266391 -1.139864
2008-11-06 06:16:29 51°13.972 2°55.577 -999 0.050028 0.263618 -1.139864
2008-11-06 06:16:34 51°13.979 2°55.568 -999 0.050234 0.264727 -1.139864
2008-11-06 06:16:40 51°13.987 2°55.556 -999 0.049411 0.260293 -1.139864
2008-11-06 06:16:45 51°13.995 2°55.547 -999 0.048382 0.254751 -1.10504
2008-11-06 06:16:49 51°14.001 2°55.54 -999 0.048382 0.254751 -1.10504
2008-11-06 06:16:54 51°14.009 2°55.531 -999 0.05116 0.269725 -1.10504
2008-11-06 06:17:00 51°14.019 2°55.52 -999 0.050131 0.264181 -1.139864
2008-11-06 06:17:05 51°14.027 2°55.51 -999 0.05116 0.269734 -1.10504
2008-11-06 06:17:09 51°14.034 2°55.503 -999 0.05044 0.26585 -1.139864
2008-11-06 06:17:15 51°14.044 2°55.491 -999 0.049617 0.261405 -1.139864
2008-11-06 06:17:20 51°14.054 2°55.482 -999 0.049617 0.261405 -1.139864
2008-11-06 06:17:24 51°14.062 2°55.475 -999 0.050646 0.266946 -1.139864
2008-11-06 06:17:29 51°14.072 2°55.466 -999 0.048588 0.255862 -1.139864
2008-11-06 06:17:35 51°14.084 2°55.455 -999 0.05219 0.275284 -1.139864
2008-11-06 06:17:40 51°14.094 2°55.445 -999 0.048588 0.255862 -1.139864
2008-11-06 06:17:45 51°14.105 2°55.435 -999 0.051263 0.270285 -1.139864
2008-11-06 06:17:49 51°14.113 2°55.427 -999 0.051263 0.270285 -1.139864
2008-11-06 06:17:55 51°14.126 2°55.415 -999 0.049205 0.259193 -1.139864
2008-11-06 06:18:00 51°14.136 2°55.404 -999 0.050234 0.26474 -1.139864
2008-11-06 06:18:05 51°14.147 2°55.394 -999 0.05044 0.265845 -1.139864
2008-11-06 06:18:09 51°14.156 2°55.386 -999 0.049617 0.26141 -1.139864
2008-11-06 06:18:15 51°14.169 2°55.373 -999 0.051881 0.273626 -1.139864
2008-11-06 06:18:20 51°14.18 2°55.361 -999 0.051881 0.273626 -1.139864
2008-11-06 06:18:25 51°14.19 2°55.35 -999 0.051881 0.27363 -1.10504
2008-11-06 06:18:29 51°14.199 2°55.34 -999 0.052601 0.277526 -1.10504
2008-11-06 06:18:34 51°14.209 2°55.327 -999 0.050955 0.268637 -1.10504
2008-11-06 06:18:40 51°14.221 2°55.311 -999 0.051366 0.270858 -1.139864
2008-11-06 06:18:45 51°14.231 2°55.297 -999 0.04972 0.261977 -1.139864
2008-11-06 06:18:49 51°14.239 2°55.285 -999 0.04972 0.261977 -1.139864
2008-11-06 06:18:54 51°14.248 2°55.27 -999 0.051778 0.273075 -1.139864
2008-11-06 06:19:00 51°14.26 2°55.252 -999 0.049617 0.26141 -1.139864
2008-11-06 06:19:05 51°14.269 2°55.236 -999 0.055277 0.292001 -1.139864
2008-11-06 06:19:09 51°14.276 2°55.224 -999 0.051572 0.271964 -1.139864
2008-11-06 06:19:14 51°14.285 2°55.207 -999 0.05219 0.275302 -1.139864
2008-11-06 06:19:20 51°14.296 2°55.186 -999 0.05219 0.275302 -1.139864
2008-11-06 06:19:25 51°14.305 2°55.169 -999 0.053219 0.280863 -1.139864
2008-11-06 06:19:29 51°14.312 2°55.155 -999 0.048176 0.253657 -1.139864
2008-11-06 06:19:35 51°14.323 2°55.133 -999 0.051881 0.273612 -1.139864
2008-11-06 06:19:40 51°14.332 2°55.115 -999 0.050749 0.267505 -1.139864
2008-11-06 06:19:44 51°14.34 2°55.1 -999 0.048588 0.255862 -1.10504
2008-11-06 06:19:49 51°14.35 2°55.082 -999 0.048588 0.255862 -1.10504
2008-11-06 06:19:55 51°14.361 2°55.06 -999 0.052087 0.274723 -1.139864
2008-11-06 06:20:00 51°14.371 2°55.041 -999 0.052807 0.278628 -1.139864
2008-11-06 06:20:05 51°14.382 2°55.024 -999 0.05219 0.275293 -1.139864
2008-11-06 06:20:09 51°14.39 2°55.01 -999 0.05929 0.31378 -1.139864
2008-11-06 06:20:15 51°14.403 2°54.99 -999 0.054556 0.288095 -1.139864
2008-11-06 06:20:20 51°14.413 2°54.973 -999 0.054556 0.288095 -1.139864
2008-11-06 06:20:25 51°14.424 2°54.956 -999 0.05219 0.275288 -1.139864
2008-11-06 06:20:29 51°14.432 2°54.942 -999 0.054659 0.288652 -1.10504
2008-11-06 06:20:34 51°14.442 2°54.924 -999 0.051263 0.270298 -1.139864
2008-11-06 06:20:40 51°14.454 2°54.903 -999 0.051675 0.27251 -1.139864
2008-11-06 06:20:45 51°14.463 2°54.884 -999 0.053013 0.279745 -1.10504
2008-11-06 06:20:49 51°14.47 2°54.87 -999 0.053013 0.279745 -1.10504
2008-11-06 06:20:54 51°14.479 2°54.851 -999 0.053322 0.281414 -1.139864
2008-11-06 06:21:00 51°14.49 2°54.828 -999 0.049617 0.261405 -1.139864
2008-11-06 06:21:05 51°14.499 2°54.81 -999 0.05116 0.269725 -1.139864
2008-11-06 06:21:09 51°14.506 2°54.795 -999 0.057438 0.303695 -1.139864
2008-11-06 06:21:14 51°14.515 2°54.777 -999 0.060011 0.317698 -1.10504
2008-11-06 06:21:20 51°14.526 2°54.754 -999 0.060011 0.317698 -1.10504
2008-11-06 06:21:25 51°14.534 2°54.735 -999 0.061657 0.326659 -1.10504
2008-11-06 06:21:29 51°14.541 2°54.719 -999 0.059599 0.315448 -1.139864
2008-11-06 06:21:35 51°14.552 2°54.696 -999 0.058673 0.310412 -1.139864
2008-11-06 06:21:40 51°14.56 2°54.676 -999 0.052087 0.274723 -1.139864
2008-11-06 06:21:44 51°14.567 2°54.66 -999 0.055791 0.294774 -1.139864
2008-11-06 06:21:49 51°14.576 2°54.64 -999 0.055791 0.294774 -1.139864
2008-11-06 06:21:55 51°14.586 2°54.616 -999 0.054145 0.285867 -1.139864
2008-11-06 06:22:00 51°14.593 2°54.595 -999 0.052807 0.278638 -1.139864
2008-11-06 06:22:05 51°14.601 2°54.575 -999 0.050955 0.268637 -1.10504
2008-11-06 06:22:09 51°14.608 2°54.558 -999 0.053322 0.281419 -1.10504
2008-11-06 06:22:15 51°14.617 2°54.532 -999 0.051058 0.269183 -1.139864
2008-11-06 06:22:20 51°14.625 2°54.51 -999 0.051058 0.269183 -1.139864
2008-11-06 06:22:25 51°14.633 2°54.489 -999 0.059187 0.313215 -1.139864
2008-11-06 06:22:29 51°14.639 2°54.472 -999 0.051469 0.271386 -1.139864
2008-11-06 06:22:35 51°14.649 2°54.445 -999 0.052601 0.277498 -1.139864
2008-11-06 06:22:40 51°14.657 2°54.423 -999 0.051778 0.273038 -1.139864
2008-11-06 06:22:45 51°14.664 2°54.4 -999 0.050749 0.267483 -1.139864
2008-11-06 06:22:49 51°14.671 2°54.382 -999 0.050749 0.267483 -1.139864
2008-11-06 06:22:55 51°14.681 2°54.355 -999 0.049514 0.260821 -1.10504
2008-11-06 06:23:00 51°14.689 2°54.332 -999 0.048382 0.254734 -1.10504
2008-11-06 06:23:05 51°14.697 2°54.309 -999 0.048279 0.254189 -1.139864
2008-11-06 06:23:09 51°14.703 2°54.291 -999 0.045501 0.239265 -1.139864
2008-11-06 06:23:14 51°14.712 2°54.269 -999 0.05291 0.279152 -1.139864
2008-11-06 06:23:20 51°14.722 2°54.241 -999 0.05291 0.279152 -1.139864
2008-11-06 06:23:25 51°14.73 2°54.218 -999 0.051469 0.271391 -1.10504
2008-11-06 06:23:29 51°14.737 2°54.2 -999 0.047044 0.247562 -1.139864
2008-11-06 06:23:34 51°14.745 2°54.177 -999 0.048073 0.253078 -1.10504
2008-11-06 06:23:40 51°14.755 2°54.149 -999 0.053733 0.283602 -1.139864
2008-11-06 06:23:45 51°14.763 2°54.126 -999 0.050749 0.267492 -1.139864
2008-11-06 06:23:49 51°14.77 2°54.108 -999 0.050749 0.267492 -1.139864
2008-11-06 06:23:55 51°14.78 2°54.08 -999 0.049308 0.259721 -1.139864
2008-11-06 06:24:00 51°14.788 2°54.057 -999 0.050646 0.266941 -1.10504
2008-11-06 06:24:04 51°14.795 2°54.039 -999 0.05044 0.265827 -1.139864
2008-11-06 06:24:09 51°14.803 2°54.016 -999 0.048176 0.253636 -1.10504
2008-11-06 06:24:15 51°14.812 2°53.987 -999 0.047765 0.251419 -1.139864
2008-11-06 06:24:20 51°14.82 2°53.964 -999 0.047765 0.251419 -1.139864
2008-11-06 06:24:25 51°14.828 2°53.94 -999 0.047044 0.247537 -1.139864
2008-11-06 06:24:29 51°14.834 2°53.921 -999 0.048691 0.25639 -1.139864
2008-11-06 06:24:35 51°14.844 2°53.893 -999 0.046838 0.246437 -1.10504
2008-11-06 06:24:40 51°14.852 2°53.869 -999 0.047662 0.250866 -1.139864
2008-11-06 06:24:45 51°14.86 2°53.846 -999 0.048794 0.256948 -1.139864
2008-11-06 06:24:49 51°14.866 2°53.827 -999 0.048794 0.256948 -1.139864
2008-11-06 06:24:55 51°14.876 2°53.799 -999 0.047353 0.249208 -1.139864
2008-11-06 06:25:00 51°14.885 2°53.775 -999 0.049411 0.26028 -1.10504
2008-11-06 06:25:05 51°14.893 2°53.751 -999 0.04725 0.248638 -1.139864
2008-11-06 06:25:09 51°14.899 2°53.732 -999 0.048896 0.257493 -1.10504
2008-11-06 06:25:15 51°14.909 2°53.704 -999 0.04725 0.24863 -1.139864
2008-11-06 06:25:20 51°14.917 2°53.68 -999 0.04725 0.24863 -1.139864
2008-11-06 06:25:25 51°14.925 2°53.656 -999 0.051469 0.271354 -1.139864
2008-11-06 06:25:29 51°14.932 2°53.637 -999 0.047353 0.249195 -1.139864
2008-11-06 06:25:34 51°14.94 2°53.614 -999 0.048279 0.254185 -1.139864
2008-11-06 06:25:40 51°14.95 2°53.585 -999 0.049102 0.258618 -1.139864
2008-11-06 06:25:45 51°14.958 2°53.562 -999 0.051984 0.274154 -1.10504
2008-11-06 06:25:49 51°14.965 2°53.543 -999 0.051984 0.274154 -1.10504
2008-11-06 06:25:55 51°14.975 2°53.514 -999 0.05219 0.275274 -1.139864
2008-11-06 06:26:00 51°14.983 2°53.491 -999 0.047456 0.249756 -1.10504
2008-11-06 06:26:05 51°14.991 2°53.467 -999 0.051263 0.270248 -1.139864
2008-11-06 06:26:09 51°14.998 2°53.448 -999 0.046324 0.243663 -1.139864
2008-11-06 06:26:15 51°15.008 2°53.42 -999 0.053219 0.280792 -1.139864
2008-11-06 06:26:20 51°15.016 2°53.396 -999 0.053219 0.280792 -1.139864
2008-11-06 06:26:25 51°15.024 2°53.373 -999 0.050028 0.263574 -1.139864
2008-11-06 06:26:29 51°15.031 2°53.354 -999 0.061143 0.32379 -1.139864
2008-11-06 06:26:35 51°15.041 2°53.326 -999 0.052395 0.276344 -1.139864
2008-11-06 06:26:40 51°15.049 2°53.303 -999 0.055071 0.290803 -1.139864
2008-11-06 06:26:45 51°15.058 2°53.28 -999 0.054145 0.285776 -1.139864
2008-11-06 06:26:50 51°15.066 2°53.257 -999 0.054145 0.285776 -1.139864
2008-11-06 06:26:55 51°15.074 2°53.233 -999 0.049823 0.262443 -1.139864
2008-11-06 06:27:00 51°15.081 2°53.21 -999 0.050337 0.265211 -1.139864
2008-11-06 06:27:05 51°15.089 2°53.186 -999 0.052807 0.27853 -1.10504
2008-11-06 06:27:09 51°15.096 2°53.168 -999 0.055071 0.290793 -1.139864
2008-11-06 06:27:15 51°15.105 2°53.14 -999 0.057952 0.306426 -1.139864
2008-11-06 06:27:20 51°15.114 2°53.117 -999 0.057952 0.306426 -1.139864
2008-11-06 06:27:25 51°15.122 2°53.094 -999 0.048794 0.256918 -1.10504
2008-11-06 06:27:29 51°15.128 2°53.075 -999 0.049514 0.260786 -1.10504
2008-11-06 06:27:35 51°15.138 2°53.047 -999 0.054454 0.287451 -1.139864
2008-11-06 06:27:40 51°15.146 2°53.024 -999 0.052395 0.276326 -1.139864
2008-11-06 06:27:45 51°15.153 2°53.001 -999 0.050749 0.267442 -1.10504
2008-11-06 06:27:49 51°15.16 2°52.983 -999 0.050749 0.267442 -1.10504
2008-11-06 06:27:54 51°15.168 2°52.959 -999 0.047867 0.251922 -1.139864
2008-11-06 06:28:00 51°15.177 2°52.932 -999 0.046941 0.246948 -1.139864
2008-11-06 06:28:05 51°15.185 2°52.908 -999 0.053219 0.280768 -1.139864
2008-11-06 06:28:09 51°15.191 2°52.89 -999 0.046015 0.241971 -1.139864
2008-11-06 06:28:15 51°15.2 2°52.862 -999 0.04797 0.252479 -1.139864
2008-11-06 06:28:20 51°15.208 2°52.838 -999 0.04797 0.252479 -1.139864
2008-11-06 06:28:25 51°15.216 2°52.815 -999 0.049205 0.259124 -1.139864
2008-11-06 06:28:29 51°15.222 2°52.796 -999 0.048999 0.258017 -1.10504
2008-11-06 06:28:34 51°15.229 2°52.773 -999 0.047147 0.248057 -1.139864
2008-11-06 06:28:40 51°15.239 2°52.745 -999 0.046838 0.2464 -1.139864
2008-11-06 06:28:45 51°15.246 2°52.721 -999 0.046633 0.245295 -1.139864
2008-11-06 06:28:49 51°15.252 2°52.702 -999 0.046633 0.245295 -1.139864
2008-11-06 06:28:55 51°15.26 2°52.674 -999 0.048794 0.256905 -1.139864
2008-11-06 06:29:00 51°15.267 2°52.65 -999 0.053116 0.280221 -1.139864
2008-11-06 06:29:04 51°15.273 2°52.631 -999 0.050234 0.264669 -1.10504
2008-11-06 06:29:09 51°15.28 2°52.608 -999 0.050749 0.267433 -1.139864
2008-11-06 06:29:15 51°15.288 2°52.579 -999 0.048794 0.256909 -1.139864
2008-11-06 06:29:20 51°15.295 2°52.555 -999 0.048794 0.256909 -1.139864
2008-11-06 06:29:25 51°15.302 2°52.531 -999 0.051778 0.273002 -1.139864
2008-11-06 06:29:29 51°15.307 2°52.512 -999 0.052395 0.276321 -1.139864
2008-11-06 06:29:35 51°15.315 2°52.483 -999 0.049617 0.261335 -1.10504
2008-11-06 06:29:40 51°15.32 2°52.459 -999 0.053322 0.28131 -1.139864
2008-11-06 06:29:45 51°15.326 2°52.435 -999 0.058879 0.311463 -1.139864
2008-11-06 06:29:49 51°15.331 2°52.415 -999 0.058879 0.311463 -1.139864
2008-11-06 06:29:55 51°15.338 2°52.386 -999 0.053116 0.280221 -1.139864
2008-11-06 06:30:00 51°15.344 2°52.362 -999 0.052292 0.27577 -1.139864
2008-11-06 06:30:05 51°15.349 2°52.338 -999 0.058879 0.311457 -1.139864
2008-11-06 06:30:09 51°15.354 2°52.319 -999 0.048691 0.256364 -1.10504
2008-11-06 06:30:15 51°15.361 2°52.289 -999 0.053013 0.279675 -1.139864
2008-11-06 06:30:20 51°15.367 2°52.265 -999 0.053013 0.279675 -1.139864
2008-11-06 06:30:25 51°15.373 2°52.241 -999 0.047559 0.250284 -1.139864
2008-11-06 06:30:29 51°15.377 2°52.221 -999 0.051366 0.270785 -1.139864
2008-11-06 06:30:34 51°15.383 2°52.197 -999 0.04653 0.244751 -1.10504
2008-11-06 06:30:40 51°15.39 2°52.168 -999 0.051778 0.272997 -1.139864
2008-11-06 06:30:45 51°15.395 2°52.144 -999 0.051366 0.270785 -1.139864
2008-11-06 06:30:49 51°15.4 2°52.125 -999 0.051366 0.270785 -1.139864
2008-11-06 06:30:55 51°15.406 2°52.096 -999 0.050234 0.264692 -1.139864
2008-11-06 06:31:00 51°15.411 2°52.071 -999 0.047765 0.251394 -1.139864
2008-11-06 06:31:04 51°15.415 2°52.052 -999 0.049308 0.259704 -1.139864
2008-11-06 06:31:10 51°15.421 2°52.022 -999 0.050337 0.265246 -1.139864
2008-11-06 06:31:15 51°15.425 2°51.998 -999 0.05116 0.269671 -1.139864
2008-11-06 06:31:20 51°15.43 2°51.973 -999 0.05116 0.269671 -1.139864
2008-11-06 06:31:25 51°15.435 2°51.949 -999 0.053116 0.280231 -1.139864
2008-11-06 06:31:29 51°15.438 2°51.929 -999 0.052292 0.275779 -1.139864
2008-11-06 06:31:35 51°15.444 2°51.9 -999 0.049823 0.262461 -1.139864
2008-11-06 06:31:40 51°15.448 2°51.875 -999 0.051058 0.269111 -1.139864
2008-11-06 06:31:45 51°15.453 2°51.851 -999 0.049617 0.261348 -1.10504
2008-11-06 06:31:49 51°15.456 2°51.831 -999 0.049617 0.261348 -1.10504
2008-11-06 06:31:55 51°15.461 2°51.802 -999 0.051469 0.271345 -1.10504
2008-11-06 06:32:00 51°15.466 2°51.777 -999 0.04797 0.2525 -1.139864
2008-11-06 06:32:05 51°15.47 2°51.753 -999 0.050131 0.264128 -1.139864
2008-11-06 06:32:09 51°15.473 2°51.733 -999 0.049823 0.262483 -1.139864
2008-11-06 06:32:15 51°15.478 2°51.703 -999 0.049205 0.259163 -1.139864
2008-11-06 06:32:20 51°15.483 2°51.679 -999 0.049205 0.259163 -1.139864
2008-11-06 06:32:25 51°15.487 2°51.654 -999 0.047044 0.247541 -1.139864
2008-11-06 06:32:29 51°15.49 2°51.634 -999 0.050234 0.264705 -1.139864
2008-11-06 06:32:34 51°15.494 2°51.609 -999 0.049102 0.258609 -1.139864
2008-11-06 06:32:40 51°15.499 2°51.579 -999 0.048485 0.255287 -1.139864
2008-11-06 06:32:45 51°15.503 2°51.554 -999 0.048382 0.254734 -1.139864
2008-11-06 06:32:49 51°15.506 2°51.534 -999 0.048382 0.254734 -1.139864
2008-11-06 06:32:54 51°15.51 2°51.51 -999 0.048485 0.255287 -1.139864
2008-11-06 06:33:00 51°15.515 2°51.48 -999 0.046633 0.245324 -1.139864
2008-11-06 06:33:05 51°15.519 2°51.455 -999 0.054145 0.2858 -1.139864
2008-11-06 06:33:09 51°15.522 2°51.435 -999 0.050646 0.266901 -1.139864
2008-11-06 06:33:15 51°15.526 2°51.406 -999 0.047353 0.249174 -1.139864
2008-11-06 06:33:20 51°15.53 2°51.381 -999 0.047353 0.249174 -1.139864
2008-11-06 06:33:24 51°15.532 2°51.361 -999 0.05116 0.26968 -1.139864
2008-11-06 06:33:29 51°15.537 2°51.336 -999 0.047559 0.25028 -1.10504
2008-11-06 06:33:35 51°15.541 2°51.306 -999 0.047867 0.251951 -1.139864
2008-11-06 06:33:40 51°15.545 2°51.282 -999 0.047353 0.249195 -1.139864
2008-11-06 06:33:45 51°15.549 2°51.257 -999 0.053013 0.279741 -1.10504
2008-11-06 06:33:49 51°15.552 2°51.237 -999 0.053013 0.279741 -1.10504
2008-11-06 06:33:55 51°15.557 2°51.207 -999 0.051058 0.269197 -1.139864
2008-11-06 06:34:00 51°15.561 2°51.182 -999 0.048794 0.257004 -1.10504
2008-11-06 06:34:05 51°15.565 2°51.157 -999 0.051469 0.271431 -1.10504
2008-11-06 06:34:09 51°15.569 2°51.138 -999 0.048896 0.257558 -1.139864
2008-11-06 06:34:15 51°15.573 2°51.108 -999 0.051058 0.269201 -1.10504
2008-11-06 06:34:20 51°15.578 2°51.083 -999 0.051058 0.269201 -1.10504
2008-11-06 06:34:25 51°15.581 2°51.058 -999 0.050131 0.26419 -1.139864
2008-11-06 06:34:29 51°15.585 2°51.038 -999 0.050955 0.268637 -1.10504
2008-11-06 06:34:34 51°15.589 2°51.013 -999 0.051984 0.274195 -1.139864
2008-11-06 06:34:40 51°15.594 2°50.983 -999 0.051881 0.273649 -1.139864
2008-11-06 06:34:45 51°15.598 2°50.959 -999 0.048794 0.257008 -1.10504
2008-11-06 06:34:49 51°15.601 2°50.939 -999 0.048794 0.257008 -1.10504
2008-11-06 06:34:54 51°15.605 2°50.914 -999 0.048896 0.257575 -1.139864
2008-11-06 06:35:00 51°15.61 2°50.884 -999 0.049205 0.259232 -1.139864
2008-11-06 06:35:05 51°15.614 2°50.859 -999 0.049926 0.263125 -1.139864
2008-11-06 06:35:09 51°15.618 2°50.839 -999 0.053527 0.282584 -1.139864
2008-11-06 06:35:15 51°15.623 2°50.81 -999 0.050543 0.266467 -1.139864
2008-11-06 06:35:20 51°15.627 2°50.785 -999 0.050543 0.266467 -1.139864
2008-11-06 06:35:25 51°15.631 2°50.76 -999 0.050852 0.268123 -1.139864
2008-11-06 06:35:29 51°15.634 2°50.74 -999 0.054145 0.28592 -1.139864
2008-11-06 06:35:35 51°15.639 2°50.711 -999 0.052087 0.274788 -1.139864
2008-11-06 06:35:40 51°15.643 2°50.686 -999 0.04797 0.252601 -1.139864
2008-11-06 06:35:45 51°15.647 2°50.661 -999 0.051778 0.273121 -1.139864
2008-11-06 06:35:49 51°15.65 2°50.641 -999 0.051778 0.273121 -1.139864
2008-11-06 06:35:55 51°15.655 2°50.611 -999 0.049926 0.26313 -1.139864
2008-11-06 06:36:00 51°15.659 2°50.587 -999 0.048382 0.254815 -1.139864
2008-11-06 06:36:05 51°15.663 2°50.562 -999 0.051984 0.274241 -1.139864
2008-11-06 06:36:09 51°15.666 2°50.542 -999 0.049926 0.263134 -1.139864
2008-11-06 06:36:15 51°15.671 2°50.512 -999 0.055483 0.29319 -1.139864
2008-11-06 06:36:20 51°15.675 2°50.487 -999 0.055483 0.29319 -1.139864
2008-11-06 06:36:25 51°15.679 2°50.462 -999 0.04972 0.262043 -1.139864
2008-11-06 06:36:29 51°15.682 2°50.442 -999 0.048382 0.254836 -1.139864
2008-11-06 06:36:35 51°15.687 2°50.412 -999 0.051572 0.272033 -1.139864
2008-11-06 06:36:40 51°15.691 2°50.387 -999 0.048794 0.25706 -1.139864
2008-11-06 06:36:45 51°15.694 2°50.362 -999 0.047867 0.252082 -1.139864
2008-11-06 06:36:49 51°15.697 2°50.342 -999 0.047867 0.252082 -1.139864
2008-11-06 06:36:54 51°15.701 2°50.317 -999 0.047353 0.249324 -1.139864
2008-11-06 06:37:00 51°15.705 2°50.287 -999 0.046015 0.24214 -1.139864
2008-11-06 06:37:05 51°15.708 2°50.262 -999 0.049308 0.259865 -1.139864
2008-11-06 06:37:09 51°15.712 2°50.242 -999 0.046221 0.243249 -1.139864
2008-11-06 06:37:14 51°15.714 2°50.217 -999 0.05219 0.275408 -1.139864
2008-11-06 06:37:20 51°15.719 2°50.186 -999 0.05219 0.275408 -1.139864
2008-11-06 06:37:25 51°15.722 2°50.161 -999 0.052292 0.275974 -1.139864
2008-11-06 06:37:29 51°15.725 2°50.141 -999 0.051366 0.270967 -1.139864
2008-11-06 06:37:35 51°15.729 2°50.111 -999 0.049102 0.258743 -1.139864
2008-11-06 06:37:40 51°15.732 2°50.086 -999 0.052292 0.275946 -1.139864
2008-11-06 06:37:45 51°15.735 2°50.061 -999 0.049617 0.261497 -1.139864
2008-11-06 06:37:49 51°15.738 2°50.04 -999 0.049617 0.261497 -1.139864
2008-11-06 06:37:55 51°15.742 2°50.01 -999 0.048485 0.25542 -1.139864
2008-11-06 06:38:00 51°15.745 2°49.985 -999 0.047867 0.252115 -1.10504
2008-11-06 06:38:05 51°15.748 2°49.96 -999 0.049926 0.263227 -1.139864
2008-11-06 06:38:09 51°15.751 2°49.94 -999 0.051058 0.269355 -1.139864
2008-11-06 06:38:15 51°15.754 2°49.91 -999 0.050131 0.264376 -1.139864
2008-11-06 06:38:20 51°15.758 2°49.885 -999 0.050131 0.264376 -1.139864
2008-11-06 06:38:25 51°15.761 2°49.86 -999 0.05116 0.269924 -1.139864
2008-11-06 06:38:29 51°15.763 2°49.839 -999 0.049926 0.263271 -1.139864
2008-11-06 06:38:35 51°15.766 2°49.809 -999 0.050646 0.267161 -1.139864
2008-11-06 06:38:40 51°15.77 2°49.784 -999 0.051881 0.273837 -1.10504
2008-11-06 06:38:45 51°15.773 2°49.759 -999 0.052292 0.276066 -1.139864
2008-11-06 06:38:49 51°15.775 2°49.739 -999 0.052292 0.276066 -1.139864
2008-11-06 06:38:55 51°15.779 2°49.708 -999 0.050646 0.267143 -1.139864
2008-11-06 06:39:00 51°15.782 2°49.683 -999 0.048382 0.254955 -1.139864
2008-11-06 06:39:05 51°15.786 2°49.658 -999 0.048382 0.254938 -1.10504
2008-11-06 06:39:09 51°15.788 2°49.638 -999 0.051469 0.271595 -1.139864
2008-11-06 06:39:14 51°15.791 2°49.613 -999 0.055277 0.292212 -1.10504
2008-11-06 06:39:20 51°15.794 2°49.582 -999 0.055277 0.292212 -1.10504
2008-11-06 06:39:25 51°15.796 2°49.557 -999 0.052807 0.278811 -1.10504
2008-11-06 06:39:29 51°15.798 2°49.537 -999 0.049926 0.263244 -1.10504
2008-11-06 06:39:35 51°15.801 2°49.506 -999 0.05044 0.266041 -1.139864
2008-11-06 06:39:40 51°15.804 2°49.481 -999 0.048588 0.256068 -1.10504
2008-11-06 06:39:45 51°15.806 2°49.456 -999 0.053116 0.280523 -1.139864
2008-11-06 06:39:49 51°15.808 2°49.436 -999 0.053116 0.280523 -1.139864
2008-11-06 06:39:55 51°15.812 2°49.405 -999 0.04725 0.248892 -1.139864
2008-11-06 06:40:00 51°15.815 2°49.38 -999 0.050646 0.26721 -1.139864
2008-11-06 06:40:05 51°15.819 2°49.355 -999 0.050337 0.26554 -1.10504
2008-11-06 06:40:09 51°15.821 2°49.334 -999 0.052498 0.27723 -1.139864
2008-11-06 06:40:15 51°15.825 2°49.304 -999 0.05291 0.279443 -1.139864
2008-11-06 06:40:20 51°15.829 2°49.279 -999 0.05291 0.279443 -1.139864
2008-11-06 06:40:25 51°15.832 2°49.254 -999 0.048176 0.253878 -1.139864
2008-11-06 06:40:30 51°15.836 2°49.228 -999 0.050131 0.264416 -1.139864
2008-11-06 06:40:35 51°15.84 2°49.203 -999 0.048691 0.25666 -1.139864
2008-11-06 06:40:40 51°15.843 2°49.178 -999 0.04972 0.262214 -1.10504
2008-11-06 06:40:45 51°15.846 2°49.152 -999 0.045295 0.238416 -1.139864
2008-11-06 06:40:49 51°15.849 2°49.132 -999 0.045295 0.238416 -1.139864
2008-11-06 06:40:55 51°15.852 2°49.102 -999 0.051881 0.27392 -1.139864
2008-11-06 06:41:00 51°15.856 2°49.076 -999 0.047867 0.252271 -1.139864
2008-11-06 06:41:05 51°15.858 2°49.051 -999 0.050543 0.266708 -1.139864
2008-11-06 06:41:09 51°15.861 2°49.031 -999 0.050852 0.268388 -1.10504
2008-11-06 06:41:15 51°15.864 2°49 -999 0.051058 0.269509 -1.139864
2008-11-06 06:41:20 51°15.867 2°48.975 -999 0.051058 0.269509 -1.139864
2008-11-06 06:41:25 51°15.87 2°48.949 -999 0.053116 0.280636 -1.139864
2008-11-06 06:41:29 51°15.872 2°48.929 -999 0.052292 0.276201 -1.139864
2008-11-06 06:41:34 51°15.875 2°48.903 -999 0.049411 0.260646 -1.10504
2008-11-06 06:41:40 51°15.878 2°48.873 -999 0.049514 0.261201 -1.10504
2008-11-06 06:41:45 51°15.881 2°48.847 -999 0.05291 0.279565 -1.139864
2008-11-06 06:41:49 51°15.884 2°48.827 -999 0.05291 0.279565 -1.139864
2008-11-06 06:41:55 51°15.887 2°48.796 -999 0.049617 0.261778 -1.139864
2008-11-06 06:42:00 51°15.89 2°48.771 -999 0.04725 0.249025 -1.10504
2008-11-06 06:42:05 51°15.893 2°48.745 -999 0.04797 0.252884 -1.139864
2008-11-06 06:42:09 51°15.895 2°48.725 -999 0.051881 0.273985 -1.139864
2008-11-06 06:42:15 51°15.899 2°48.694 -999 0.052601 0.277913 -1.139864
2008-11-06 06:42:20 51°15.901 2°48.669 -999 0.052601 0.277913 -1.139864
2008-11-06 06:42:25 51°15.904 2°48.644 -999 0.051572 0.272348 -1.139864
2008-11-06 06:42:29 51°15.906 2°48.623 -999 0.048691 0.256789 -1.139864
2008-11-06 06:42:35 51°15.909 2°48.593 -999 0.061657 0.327158 -1.139864
2008-11-06 06:42:40 51°15.912 2°48.568 -999 0.053836 0.284628 -1.139864
2008-11-06 06:42:45 51°15.914 2°48.543 -999 0.050852 0.268442 -1.139864
2008-11-06 06:42:50 51°15.917 2°48.517 -999 0.050852 0.268442 -1.139864
2008-11-06 06:42:55 51°15.919 2°48.492 -999 0.056718 0.300206 -1.10504
2008-11-06 06:43:00 51°15.922 2°48.466 -999 0.052087 0.275111 -1.139864
2008-11-06 06:43:05 51°15.924 2°48.441 -999 0.053424 0.282369 -1.139864
2008-11-06 06:43:09 51°15.926 2°48.421 -999 0.05116 0.270119 -1.139864
2008-11-06 06:43:15 51°15.929 2°48.39 -999 0.051469 0.27181 -1.139864
2008-11-06 06:43:20 51°15.931 2°48.365 -999 0.051469 0.27181 -1.139864
2008-11-06 06:43:25 51°15.932 2°48.34 -999 0.046838 0.246827 -1.139864
2008-11-06 06:43:29 51°15.934 2°48.32 -999 0.053116 0.280736 -1.139864
2008-11-06 06:43:34 51°15.936 2°48.294 -999 0.055277 0.292459 -1.10504
2008-11-06 06:43:40 51°15.938 2°48.264 -999 0.051058 0.269631 -1.139864
2008-11-06 06:43:45 51°15.94 2°48.239 -999 0.05219 0.275779 -1.139864
2008-11-06 06:43:49 51°15.941 2°48.218 -999 0.05219 0.275779 -1.139864
2008-11-06 06:43:55 51°15.944 2°48.188 -999 0.049308 0.260178 -1.139864
2008-11-06 06:44:00 51°15.946 2°48.163 -999 0.053836 0.28468 -1.139864
2008-11-06 06:44:05 51°15.948 2°48.137 -999 0.049617 0.261843 -1.139864
2008-11-06 06:44:09 51°15.95 2°48.117 -999 0.054659 0.289134 -1.139864
2008-11-06 06:44:15 51°15.953 2°48.087 -999 0.049411 0.260738 -1.139864
2008-11-06 06:44:20 51°15.955 2°48.061 -999 0.049411 0.260738 -1.139864
2008-11-06 06:44:25 51°15.957 2°48.036 -999 0.05363 0.28357 -1.10504
2008-11-06 06:44:29 51°15.96 2°48.015 -999 0.048897 0.257967 -1.10504
2008-11-06 06:44:35 51°15.963 2°47.985 -999 0.050646 0.267421 -1.139864
2008-11-06 06:44:40 51°15.965 2°47.96 -999 0.048588 0.256312 -1.10504
2008-11-06 06:44:45 51°15.968 2°47.934 -999 0.05219 0.275784 -1.10504
2008-11-06 06:44:50 51°15.971 2°47.909 -999 0.05219 0.275784 -1.10504
2008-11-06 06:44:54 51°15.973 2°47.889 -999 0.048485 0.255779 -1.139864
2008-11-06 06:45:00 51°15.976 2°47.858 -999 0.047456 0.250224 -1.139864
2008-11-06 06:45:05 51°15.978 2°47.833 -999 0.052498 0.277436 -1.139864
2008-11-06 06:45:09 51°15.98 2°47.812 -999 0.050646 0.267412 -1.139864
2008-11-06 06:45:15 51°15.983 2°47.781 -999 0.054248 0.286931 -1.10504
2008-11-06 06:45:20 51°15.985 2°47.756 -999 0.054248 0.286931 -1.10504
2008-11-06 06:45:25 51°15.987 2°47.73 -999 0.048382 0.255207 -1.139864
2008-11-06 06:45:29 51°15.989 2°47.709 -999 0.045706 0.240805 -1.10504
2008-11-06 06:45:35 51°15.992 2°47.679 -999 0.048794 0.257417 -1.10504
2008-11-06 06:45:40 51°15.994 2°47.653 -999 0.057335 0.303705 -1.139864
2008-11-06 06:45:45 51°15.998 2°47.628 -999 0.050234 0.265207 -1.10504
2008-11-06 06:45:49 51°15.999 2°47.607 -999 0.050234 0.265207 -1.10504
2008-11-06 06:45:55 51°16.003 2°47.576 -999 0.050749 0.268013 -1.10504
2008-11-06 06:46:00 51°16.005 2°47.55 -999 0.055688 0.294778 -1.10504
2008-11-06 06:46:05 51°16.009 2°47.525 -999 0.053116 0.28083 -1.139864
2008-11-06 06:46:09 51°16.011 2°47.505 -999 0.059805 0.317195 -1.10504
2008-11-06 06:46:15 51°16.015 2°47.475 -999 0.049308 0.260235 -1.139864
2008-11-06 06:46:20 51°16.018 2°47.449 -999 0.049308 0.260235 -1.139864
2008-11-06 06:46:25 51°16.021 2°47.424 -999 0.055791 0.295366 -1.139864
2008-11-06 06:46:29 51°16.023 2°47.403 -999 0.05682 0.300979 -1.10504
2008-11-06 06:46:34 51°16.026 2°47.378 -999 0.051263 0.270848 -1.139864
2008-11-06 06:46:40 51°16.029 2°47.348 -999 0.054454 0.288168 -1.139864
2008-11-06 06:46:45 51°16.031 2°47.322 -999 0.062378 0.331299 -1.139864
2008-11-06 06:46:49 51°16.033 2°47.302 -999 0.062378 0.331299 -1.139864
2008-11-06 06:46:55 51°16.036 2°47.272 -999 0.050234 0.265269 -1.10504
2008-11-06 06:47:00 51°16.038 2°47.247 -999 0.06423 0.341413 -1.139864
2008-11-06 06:47:04 51°16.04 2°47.226 -999 0.056203 0.297628 -1.10504
2008-11-06 06:47:10 51°16.043 2°47.196 -999 0.052087 0.275324 -1.139864
2008-11-06 06:47:15 51°16.045 2°47.171 -999 0.051572 0.272559 -1.139864
2008-11-06 06:47:20 51°16.047 2°47.145 -999 0.051572 0.272559 -1.139864
2008-11-06 06:47:25 51°16.049 2°47.12 -999 0.056512 0.299381 -1.139864
2008-11-06 06:47:29 51°16.051 2°47.1 -999 0.051469 0.272071 -1.139864
2008-11-06 06:47:35 51°16.053 2°47.07 -999 0.054865 0.290481 -1.139864
2008-11-06 06:47:40 51°16.056 2°47.044 -999 0.051263 0.27093 -1.10504
2008-11-06 06:47:45 51°16.058 2°47.019 -999 0.050029 0.264251 -1.139864
2008-11-06 06:47:49 51°16.059 2°46.999 -999 0.050029 0.264251 -1.139864
2008-11-06 06:47:55 51°16.062 2°46.969 -999 0.053836 0.284882 -1.10504
2008-11-06 06:48:00 51°16.065 2°46.944 -999 0.049411 0.260926 -1.139864
2008-11-06 06:48:05 51°16.067 2°46.919 -999 0.05538 0.293275 -1.139864
2008-11-06 06:48:09 51°16.069 2°46.898 -999 0.046735 0.246488 -1.139864
2008-11-06 06:48:15 51°16.071 2°46.868 -999 0.056923 0.301645 -1.10504
2008-11-06 06:48:20 51°16.074 2°46.843 -999 0.056923 0.301645 -1.10504
2008-11-06 06:48:25 51°16.076 2°46.818 -999 0.04972 0.262557 -1.139864
2008-11-06 06:48:29 51°16.078 2°46.798 -999 0.056306 0.298268 -1.139864
2008-11-06 06:48:34 51°16.08 2°46.773 -999 0.051366 0.271486 -1.139864
2008-11-06 06:48:40 51°16.083 2°46.743 -999 0.050029 0.264269 -1.139864
2008-11-06 06:48:45 51°16.085 2°46.718 -999 0.054248 0.287154 -1.139864
2008-11-06 06:48:49 51°16.087 2°46.697 -999 0.054248 0.287154 -1.139864
2008-11-06 06:48:55 51°16.09 2°46.667 -999 0.049411 0.260952 -1.139864
2008-11-06 06:49:00 51°16.092 2°46.642 -999 0.0561 0.297259 -1.139864
2008-11-06 06:49:04 51°16.095 2°46.622 -999 0.052704 0.278803 -1.139864
2008-11-06 06:49:10 51°16.098 2°46.592 -999 0.052292 0.27661 -1.139864
2008-11-06 06:49:15 51°16.101 2°46.567 -999 0.062892 0.334328 -1.139864
2008-11-06 06:49:20 51°16.104 2°46.542 -999 0.062892 0.334328 -1.139864
2008-11-06 06:49:25 51°16.108 2°46.518 -999 0.049411 0.261018 -1.139864
2008-11-06 06:49:29 51°16.11 2°46.497 -999 0.059187 0.314075 -1.139864
2008-11-06 06:49:35 51°16.115 2°46.468 -999 0.051984 0.274892 -1.139864
2008-11-06 06:49:40 51°16.119 2°46.443 -999 0.065568 0.348996 -1.139864
2008-11-06 06:49:45 51°16.123 2°46.418 -999 0.0561 0.297285 -1.139864
2008-11-06 06:49:50 51°16.128 2°46.394 -999 0.0561 0.297285 -1.139864
2008-11-06 06:49:55 51°16.133 2°46.369 -999 0.054454 0.2883 -1.10504
2008-11-06 06:50:00 51°16.139 2°46.345 -999 0.054968 0.291098 -1.10504
2008-11-06 06:50:05 51°16.144 2°46.32 -999 0.062892 0.334311 -1.139864
2008-11-06 06:50:09 51°16.149 2°46.302 -999 0.052395 0.277117 -1.139864
2008-11-06 06:50:15 51°16.156 2°46.273 -999 0.064333 0.342239 -1.139864
2008-11-06 06:50:20 51°16.163 2°46.249 -999 0.064333 0.342239 -1.139864
2008-11-06 06:50:25 51°16.169 2°46.225 -999 0.057129 0.302898 -1.10504
2008-11-06 06:50:29 51°16.175 2°46.206 -999 0.050852 0.268858 -1.139864
2008-11-06 06:50:34 51°16.18 2°46.182 -999 0.065671 0.34965 -1.139864
2008-11-06 06:50:40 51°16.189 2°46.154 -999 0.057644 0.305757 -1.139864
2008-11-06 06:50:45 51°16.195 2°46.129 -999 0.070919 0.378602 -1.139864
2008-11-06 06:50:49 51°16.201 2°46.111 -999 0.070919 0.378602 -1.139864
2008-11-06 06:50:54 51°16.207 2°46.087 -999 0.062789 0.333884 -1.10504
2008-11-06 06:51:00 51°16.215 2°46.058 -999 0.055483 0.293973 -1.10504
2008-11-06 06:51:05 51°16.222 2°46.034 -999 0.070713 0.377339 -1.10504
2008-11-06 06:51:09 51°16.227 2°46.015 -999 0.063715 0.338943 -1.139864
2008-11-06 06:51:15 51°16.236 2°45.987 -999 0.057644 0.305752 -1.10504
2008-11-06 06:51:20 51°16.242 2°45.963 -999 0.057644 0.305752 -1.10504
2008-11-06 06:51:25 51°16.25 2°45.939 -999 0.065774 0.350244 -1.10504
2008-11-06 06:51:29 51°16.255 2°45.92 -999 0.058158 0.308618 -1.139864
2008-11-06 06:51:35 51°16.264 2°45.892 -999 0.055791 0.295736 -1.139864
2008-11-06 06:51:40 51°16.272 2°45.868 -999 0.057541 0.305279 -1.10504
2008-11-06 06:51:45 51°16.28 2°45.845 -999 0.057335 0.304153 -1.139864
2008-11-06 06:51:49 51°16.286 2°45.827 -999 0.057335 0.304153 -1.139864
2008-11-06 06:51:55 51°16.296 2°45.799 -999 0.065362 0.348099 -1.10504
2008-11-06 06:52:00 51°16.304 2°45.776 -999 0.063201 0.336275 -1.139864
2008-11-06 06:52:05 51°16.313 2°45.753 -999 0.057747 0.306447 -1.10504
2008-11-06 06:52:10 51°16.321 2°45.731 -999 0.057952 0.307579 -1.10504
2008-11-06 06:52:15 51°16.33 2°45.709 -999 0.062069 0.330094 -1.10504
2008-11-06 06:52:20 51°16.339 2°45.686 -999 0.062069 0.330094 -1.10504
2008-11-06 06:52:25 51°16.349 2°45.665 -999 0.062172 0.330714 -1.10504
2008-11-06 06:52:29 51°16.357 2°45.648 -999 0.060217 0.319999 -1.10504
2008-11-06 06:52:35 51°16.369 2°45.622 -999 0.055791 0.295836 -1.139864
2008-11-06 06:52:40 51°16.379 2°45.6 -999 0.064745 0.344735 -1.10504
2008-11-06 06:52:45 51°16.39 2°45.58 -999 0.062378 0.331818 -1.139864
2008-11-06 06:52:49 51°16.398 2°45.564 -999 0.062378 0.331818 -1.139864
2008-11-06 06:52:54 51°16.41 2°45.544 -999 0.059805 0.317745 -1.139864
2008-11-06 06:53:00 51°16.424 2°45.52 -999 0.060011 0.318874 -1.139864
2008-11-06 06:53:05 51°16.435 2°45.501 -999 0.058158 0.30877 -1.10504
2008-11-06 06:53:09 51°16.445 2°45.486 -999 0.055071 0.291934 -1.139864
2008-11-06 06:53:15 51°16.46 2°45.464 -999 0.055894 0.296386 -1.139864
2008-11-06 06:53:20 51°16.473 2°45.446 -999 0.055894 0.296386 -1.139864
2008-11-06 06:53:25 51°16.486 2°45.428 -999 0.052601 0.27848 -1.139864
2008-11-06 06:53:29 51°16.497 2°45.414 -999 0.054968 0.291335 -1.10504
2008-11-06 06:53:35 51°16.513 2°45.395 -999 0.061966 0.329514 -1.139864
2008-11-06 06:53:40 51°16.527 2°45.379 -999 0.064127 0.341449 -1.139864
2008-11-06 06:53:45 51°16.541 2°45.363 -999 0.055894 0.296472 -1.10504
2008-11-06 06:53:49 51°16.552 2°45.351 -999 0.055894 0.296472 -1.10504
2008-11-06 06:53:55 51°16.569 2°45.332 -999 0.060628 0.322325 -1.139864
2008-11-06 06:54:00 51°16.584 2°45.317 -999 0.054556 0.28921 -1.139864
2008-11-06 06:54:05 51°16.599 2°45.302 -999 0.057747 0.306588 -1.139864
2008-11-06 06:54:10 51°16.613 2°45.288 -999 0.055791 0.295932 -1.10504
2008-11-06 06:54:15 51°16.628 2°45.274 -999 0.05682 0.30155 -1.139864
2008-11-06 06:54:20 51°16.643 2°45.26 -999 0.05682 0.30155 -1.139864
2008-11-06 06:54:25 51°16.658 2°45.245 -999 0.054248 0.287552 -1.139864
2008-11-06 06:54:29 51°16.669 2°45.233 -999 0.055071 0.292032 -1.139864
2008-11-06 06:54:35 51°16.687 2°45.216 -999 0.065156 0.347171 -1.139864
2008-11-06 06:54:40 51°16.701 2°45.201 -999 0.057953 0.307788 -1.139864
2008-11-06 06:54:45 51°16.716 2°45.186 -999 0.058879 0.312816 -1.10504
2008-11-06 06:54:49 51°16.728 2°45.174 -999 0.058879 0.312816 -1.10504
2008-11-06 06:54:55 51°16.745 2°45.156 -999 0.057644 0.306068 -1.139864
2008-11-06 06:55:00 51°16.76 2°45.141 -999 0.056409 0.299349 -1.10504
2008-11-06 06:55:05 51°16.774 2°45.126 -999 0.072257 0.386389 -1.139864
2008-11-06 06:55:09 51°16.786 2°45.115 -999 0.064745 0.345053 -1.139864
2008-11-06 06:55:14 51°16.801 2°45.1 -999 0.061349 0.326392 -1.139864
2008-11-06 06:55:20 51°16.818 2°45.083 -999 0.061349 0.326392 -1.139864
2008-11-06 06:55:25 51°16.833 2°45.069 -999 0.060217 0.320173 -1.139864
2008-11-06 06:55:29 51°16.845 2°45.058 -999 0.060731 0.322976 -1.10504
2008-11-06 06:55:35 51°16.864 2°45.042 -999 0.055174 0.292657 -1.139864
2008-11-06 06:55:40 51°16.879 2°45.028 -999 0.059599 0.316809 -1.139864
2008-11-06 06:55:45 51°16.894 2°45.014 -999 0.056203 0.298294 -1.10504
2008-11-06 06:55:49 51°16.906 2°45.004 -999 0.056203 0.298294 -1.10504
2008-11-06 06:55:55 51°16.924 2°44.987 -999 0.0561 0.297728 -1.10504
2008-11-06 06:56:00 51°16.94 2°44.974 -999 0.056821 0.301658 -1.10504
2008-11-06 06:56:05 51°16.955 2°44.961 -999 0.054762 0.290462 -1.10504
2008-11-06 06:56:09 51°16.967 2°44.95 -999 0.055483 0.294401 -1.139864
2008-11-06 06:56:15 51°16.986 2°44.934 -999 0.054968 0.291641 -1.139864
2008-11-06 06:56:20 51°17.001 2°44.921 -999 0.054968 0.291641 -1.139864
2008-11-06 06:56:25 51°17.016 2°44.907 -999 0.0561 0.297819 -1.139864
2008-11-06 06:56:30 51°17.031 2°44.894 -999 0.057335 0.304566 -1.139864
2008-11-06 06:56:35 51°17.046 2°44.881 -999 0.057644 0.306271 -1.139864
2008-11-06 06:56:40 51°17.062 2°44.867 -999 0.053116 0.281604 -1.139864
2008-11-06 06:56:45 51°17.077 2°44.853 -999 0.059187 0.314689 -1.139864
2008-11-06 06:56:50 51°17.092 2°44.839 -999 0.059187 0.314689 -1.139864
2008-11-06 06:56:55 51°17.107 2°44.826 -999 0.05857 0.311327 -1.139864
2008-11-06 06:57:00 51°17.122 2°44.812 -999 0.062069 0.330477 -1.10504
2008-11-06 06:57:05 51°17.138 2°44.799 -999 0.064333 0.342887 -1.10504
2008-11-06 06:57:09 51°17.15 2°44.788 -999 0.065671 0.350205 -1.10504
2008-11-06 06:57:15 51°17.169 2°44.772 -999 0.059599 0.316879 -1.139864
2008-11-06 06:57:20 51°17.184 2°44.758 -999 0.059599 0.316879 -1.139864
2008-11-06 06:57:25 51°17.199 2°44.745 -999 0.056203 0.298334 -1.139864
2008-11-06 06:57:29 51°17.211 2°44.734 -999 0.054968 0.291621 -1.10504
2008-11-06 06:57:35 51°17.229 2°44.717 -999 0.066082 0.35245 -1.139864
2008-11-06 06:57:40 51°17.245 2°44.703 -999 0.061451 0.327089 -1.139864
2008-11-06 06:57:45 51°17.26 2°44.69 -999 0.069478 0.371239 -1.10504
2008-11-06 06:57:49 51°17.272 2°44.678 -999 0.069478 0.371239 -1.10504
2008-11-06 06:57:55 51°17.29 2°44.662 -999 0.06742 0.359882 -1.10504
2008-11-06 06:58:00 51°17.305 2°44.648 -999 0.059187 0.314678 -1.10504
2008-11-06 06:58:05 51°17.32 2°44.634 -999 0.059393 0.315765 -1.10504
2008-11-06 06:58:09 51°17.332 2°44.623 -999 0.055997 0.297228 -1.10504
2008-11-06 06:58:15 51°17.35 2°44.606 -999 0.059908 0.318616 -1.10504
2008-11-06 06:58:20 51°17.365 2°44.591 -999 0.059908 0.318616 -1.10504
2008-11-06 06:58:25 51°17.38 2°44.577 -999 0.057438 0.305169 -1.10504
2008-11-06 06:58:30 51°17.395 2°44.563 -999 0.055997 0.297339 -1.10504
2008-11-06 06:58:35 51°17.41 2°44.549 -999 0.055997 0.297354 -1.139864
2008-11-06 06:58:40 51°17.425 2°44.535 -999 0.061246 0.326063 -1.10504
2008-11-06 06:58:45 51°17.44 2°44.521 -999 0.054557 0.289553 -1.139864
2008-11-06 06:58:50 51°17.455 2°44.507 -999 0.054557 0.289553 -1.139864